<?xml version="1.0" encoding="UTF-8" standalone="no" ?>
<gpx xmlns="http://www.topografix.com/GPX/1/1" xmlns:xsi="http://www.w3.org/2001/XMLSchema-instance" xsi:schemaLocation="http://www.topografix.com/GPX/1/1 http://www.topografix.com/GPX/1/1/gpx.xsd" version="1.1" creator="VisuGPX - https://www.visugpx.com">
  <metadata>
    <name>Descente de la Cuche</name>
    <desc><![CDATA[Une belle MaC qui rend cette descente incontournable!]]></desc>
  </metadata>
  <trk>
    <name><![CDATA[2011-05-17-01_Descente de la cuche]]></name>
    <trkseg>
      <trkpt lat="45.25279" lon="5.59704">
        <ele>836.9</ele>
        <time>2011-05-17T10:43:09Z</time>
      </trkpt>
      <trkpt lat="45.25289" lon="5.59718">
        <ele>835.8</ele>
        <time>2011-05-17T10:43:15Z</time>
      </trkpt>
      <trkpt lat="45.25294" lon="5.59726">
        <ele>835.8</ele>
        <time>2011-05-17T10:43:18Z</time>
      </trkpt>
      <trkpt lat="45.25299" lon="5.59735">
        <ele>836</ele>
        <time>2011-05-17T10:43:21Z</time>
      </trkpt>
      <trkpt lat="45.25306" lon="5.59741">
        <ele>836.3</ele>
        <time>2011-05-17T10:43:24Z</time>
      </trkpt>
      <trkpt lat="45.25313" lon="5.59746">
        <ele>836.7</ele>
        <time>2011-05-17T10:43:28Z</time>
      </trkpt>
      <trkpt lat="45.25321" lon="5.59751">
        <ele>837.8</ele>
        <time>2011-05-17T10:43:32Z</time>
      </trkpt>
      <trkpt lat="45.25327" lon="5.59755">
        <ele>839.1</ele>
        <time>2011-05-17T10:43:35Z</time>
      </trkpt>
      <trkpt lat="45.25333" lon="5.5976">
        <ele>840.1</ele>
        <time>2011-05-17T10:43:38Z</time>
      </trkpt>
      <trkpt lat="45.2534" lon="5.59764">
        <ele>840.3</ele>
        <time>2011-05-17T10:43:41Z</time>
      </trkpt>
      <trkpt lat="45.25348" lon="5.59768">
        <ele>841</ele>
        <time>2011-05-17T10:43:45Z</time>
      </trkpt>
      <trkpt lat="45.25356" lon="5.59771">
        <ele>841</ele>
        <time>2011-05-17T10:43:49Z</time>
      </trkpt>
      <trkpt lat="45.25364" lon="5.59774">
        <ele>840</ele>
        <time>2011-05-17T10:43:53Z</time>
      </trkpt>
      <trkpt lat="45.25372" lon="5.59777">
        <ele>840.8</ele>
        <time>2011-05-17T10:43:57Z</time>
      </trkpt>
      <trkpt lat="45.25379" lon="5.5978">
        <ele>842.5</ele>
        <time>2011-05-17T10:44:01Z</time>
      </trkpt>
      <trkpt lat="45.25387" lon="5.59783">
        <ele>843.4</ele>
        <time>2011-05-17T10:44:05Z</time>
      </trkpt>
      <trkpt lat="45.25395" lon="5.59785">
        <ele>844.7</ele>
        <time>2011-05-17T10:44:10Z</time>
      </trkpt>
      <trkpt lat="45.25397" lon="5.59785">
        <ele>845.2</ele>
        <time>2011-05-17T10:44:11Z</time>
      </trkpt>
      <trkpt lat="45.2541" lon="5.59782">
        <ele>845.9</ele>
        <time>2011-05-17T10:44:18Z</time>
      </trkpt>
      <trkpt lat="45.25416" lon="5.59775">
        <ele>847.2</ele>
        <time>2011-05-17T10:44:22Z</time>
      </trkpt>
      <trkpt lat="45.25422" lon="5.59766">
        <ele>848.1</ele>
        <time>2011-05-17T10:44:26Z</time>
      </trkpt>
      <trkpt lat="45.25425" lon="5.59755">
        <ele>849.2</ele>
        <time>2011-05-17T10:44:30Z</time>
      </trkpt>
      <trkpt lat="45.25428" lon="5.59743">
        <ele>850</ele>
        <time>2011-05-17T10:44:34Z</time>
      </trkpt>
      <trkpt lat="45.25431" lon="5.59732">
        <ele>849.9</ele>
        <time>2011-05-17T10:44:38Z</time>
      </trkpt>
      <trkpt lat="45.25435" lon="5.59724">
        <ele>850.5</ele>
        <time>2011-05-17T10:44:42Z</time>
      </trkpt>
      <trkpt lat="45.25442" lon="5.59716">
        <ele>852</ele>
        <time>2011-05-17T10:44:47Z</time>
      </trkpt>
      <trkpt lat="45.2545" lon="5.5971">
        <ele>853.3</ele>
        <time>2011-05-17T10:44:52Z</time>
      </trkpt>
      <trkpt lat="45.25459" lon="5.59706">
        <ele>853.6</ele>
        <time>2011-05-17T10:44:57Z</time>
      </trkpt>
      <trkpt lat="45.25466" lon="5.59703">
        <ele>853.6</ele>
        <time>2011-05-17T10:45:01Z</time>
      </trkpt>
      <trkpt lat="45.25473" lon="5.597">
        <ele>854.5</ele>
        <time>2011-05-17T10:45:05Z</time>
      </trkpt>
      <trkpt lat="45.2548" lon="5.59697">
        <ele>855.6</ele>
        <time>2011-05-17T10:45:11Z</time>
      </trkpt>
      <trkpt lat="45.25481" lon="5.59697">
        <ele>855.6</ele>
        <time>2011-05-17T10:45:12Z</time>
      </trkpt>
      <trkpt lat="45.25475" lon="5.59686">
        <ele>855.3</ele>
        <time>2011-05-17T10:47:18Z</time>
      </trkpt>
      <trkpt lat="45.25463" lon="5.59699">
        <ele>854.8</ele>
        <time>2011-05-17T10:47:47Z</time>
      </trkpt>
      <trkpt lat="45.25455" lon="5.59702">
        <ele>854.7</ele>
        <time>2011-05-17T10:47:49Z</time>
      </trkpt>
      <trkpt lat="45.25451" lon="5.59704">
        <ele>854.7</ele>
        <time>2011-05-17T10:47:50Z</time>
      </trkpt>
      <trkpt lat="45.25443" lon="5.59708">
        <ele>854.6</ele>
        <time>2011-05-17T10:47:52Z</time>
      </trkpt>
      <trkpt lat="45.25438" lon="5.59713">
        <ele>854.4</ele>
        <time>2011-05-17T10:47:54Z</time>
      </trkpt>
      <trkpt lat="45.25432" lon="5.59721">
        <ele>854.3</ele>
        <time>2011-05-17T10:47:56Z</time>
      </trkpt>
      <trkpt lat="45.2543" lon="5.59726">
        <ele>854.3</ele>
        <time>2011-05-17T10:47:57Z</time>
      </trkpt>
      <trkpt lat="45.25427" lon="5.59732">
        <ele>853.4</ele>
        <time>2011-05-17T10:47:58Z</time>
      </trkpt>
      <trkpt lat="45.25425" lon="5.59739">
        <ele>852.7</ele>
        <time>2011-05-17T10:47:59Z</time>
      </trkpt>
      <trkpt lat="45.25424" lon="5.59746">
        <ele>852.1</ele>
        <time>2011-05-17T10:48:00Z</time>
      </trkpt>
      <trkpt lat="45.25422" lon="5.59753">
        <ele>851.7</ele>
        <time>2011-05-17T10:48:01Z</time>
      </trkpt>
      <trkpt lat="45.25419" lon="5.59761">
        <ele>850.9</ele>
        <time>2011-05-17T10:48:02Z</time>
      </trkpt>
      <trkpt lat="45.25417" lon="5.59768">
        <ele>850.3</ele>
        <time>2011-05-17T10:48:03Z</time>
      </trkpt>
      <trkpt lat="45.25413" lon="5.59772">
        <ele>849.9</ele>
        <time>2011-05-17T10:48:04Z</time>
      </trkpt>
      <trkpt lat="45.25406" lon="5.59779">
        <ele>849.3</ele>
        <time>2011-05-17T10:48:06Z</time>
      </trkpt>
      <trkpt lat="45.25399" lon="5.59781">
        <ele>848.8</ele>
        <time>2011-05-17T10:48:08Z</time>
      </trkpt>
      <trkpt lat="45.25394" lon="5.5978">
        <ele>848.5</ele>
        <time>2011-05-17T10:48:09Z</time>
      </trkpt>
      <trkpt lat="45.25389" lon="5.5978">
        <ele>848.3</ele>
        <time>2011-05-17T10:48:10Z</time>
      </trkpt>
      <trkpt lat="45.25384" lon="5.59778">
        <ele>847.5</ele>
        <time>2011-05-17T10:48:11Z</time>
      </trkpt>
      <trkpt lat="45.25378" lon="5.59776">
        <ele>846.9</ele>
        <time>2011-05-17T10:48:12Z</time>
      </trkpt>
      <trkpt lat="45.25371" lon="5.59773">
        <ele>846.5</ele>
        <time>2011-05-17T10:48:13Z</time>
      </trkpt>
      <trkpt lat="45.25365" lon="5.59771">
        <ele>845.8</ele>
        <time>2011-05-17T10:48:14Z</time>
      </trkpt>
      <trkpt lat="45.25357" lon="5.59768">
        <ele>845.3</ele>
        <time>2011-05-17T10:48:15Z</time>
      </trkpt>
      <trkpt lat="45.2535" lon="5.59765">
        <ele>844.9</ele>
        <time>2011-05-17T10:48:16Z</time>
      </trkpt>
      <trkpt lat="45.25343" lon="5.59761">
        <ele>844.2</ele>
        <time>2011-05-17T10:48:17Z</time>
      </trkpt>
      <trkpt lat="45.25335" lon="5.59758">
        <ele>843.7</ele>
        <time>2011-05-17T10:48:18Z</time>
      </trkpt>
      <trkpt lat="45.25328" lon="5.59754">
        <ele>843.3</ele>
        <time>2011-05-17T10:48:19Z</time>
      </trkpt>
      <trkpt lat="45.25322" lon="5.5975">
        <ele>843</ele>
        <time>2011-05-17T10:48:20Z</time>
      </trkpt>
      <trkpt lat="45.25316" lon="5.59747">
        <ele>842.6</ele>
        <time>2011-05-17T10:48:21Z</time>
      </trkpt>
      <trkpt lat="45.2531" lon="5.59744">
        <ele>842.3</ele>
        <time>2011-05-17T10:48:22Z</time>
      </trkpt>
      <trkpt lat="45.25305" lon="5.59741">
        <ele>842.1</ele>
        <time>2011-05-17T10:48:23Z</time>
      </trkpt>
      <trkpt lat="45.253" lon="5.59735">
        <ele>841.1</ele>
        <time>2011-05-17T10:48:24Z</time>
      </trkpt>
      <trkpt lat="45.25295" lon="5.5973">
        <ele>840.4</ele>
        <time>2011-05-17T10:48:25Z</time>
      </trkpt>
      <trkpt lat="45.25291" lon="5.59724">
        <ele>839.8</ele>
        <time>2011-05-17T10:48:26Z</time>
      </trkpt>
      <trkpt lat="45.25287" lon="5.59713">
        <ele>838.3</ele>
        <time>2011-05-17T10:48:28Z</time>
      </trkpt>
      <trkpt lat="45.25291" lon="5.59722">
        <ele>834.7</ele>
        <time>2011-05-17T10:49:57Z</time>
      </trkpt>
      <trkpt lat="45.25292" lon="5.59723">
        <ele>834.7</ele>
        <time>2011-05-17T10:49:58Z</time>
      </trkpt>
      <trkpt lat="45.25303" lon="5.59739">
        <ele>836.5</ele>
        <time>2011-05-17T10:50:06Z</time>
      </trkpt>
      <trkpt lat="45.2531" lon="5.59743">
        <ele>837</ele>
        <time>2011-05-17T10:50:09Z</time>
      </trkpt>
      <trkpt lat="45.25317" lon="5.59747">
        <ele>837.5</ele>
        <time>2011-05-17T10:50:12Z</time>
      </trkpt>
      <trkpt lat="45.25324" lon="5.59753">
        <ele>838.1</ele>
        <time>2011-05-17T10:50:16Z</time>
      </trkpt>
      <trkpt lat="45.25332" lon="5.59755">
        <ele>839.9</ele>
        <time>2011-05-17T10:50:53Z</time>
      </trkpt>
      <trkpt lat="45.2534" lon="5.59761">
        <ele>839.3</ele>
        <time>2011-05-17T10:52:32Z</time>
      </trkpt>
      <trkpt lat="45.25341" lon="5.59762">
        <ele>839.3</ele>
        <time>2011-05-17T10:52:33Z</time>
      </trkpt>
      <trkpt lat="45.25354" lon="5.59768">
        <ele>840.1</ele>
        <time>2011-05-17T10:52:39Z</time>
      </trkpt>
      <trkpt lat="45.25361" lon="5.59772">
        <ele>840.9</ele>
        <time>2011-05-17T10:52:42Z</time>
      </trkpt>
      <trkpt lat="45.25369" lon="5.59774">
        <ele>841.8</ele>
        <time>2011-05-17T10:52:45Z</time>
      </trkpt>
      <trkpt lat="45.25377" lon="5.59777">
        <ele>842.8</ele>
        <time>2011-05-17T10:52:48Z</time>
      </trkpt>
      <trkpt lat="45.25384" lon="5.5978">
        <ele>843.7</ele>
        <time>2011-05-17T10:52:51Z</time>
      </trkpt>
      <trkpt lat="45.25392" lon="5.59783">
        <ele>844.4</ele>
        <time>2011-05-17T10:52:54Z</time>
      </trkpt>
      <trkpt lat="45.25399" lon="5.59787">
        <ele>844.8</ele>
        <time>2011-05-17T10:52:57Z</time>
      </trkpt>
      <trkpt lat="45.25407" lon="5.59787">
        <ele>845.1</ele>
        <time>2011-05-17T10:53:00Z</time>
      </trkpt>
      <trkpt lat="45.25415" lon="5.59784">
        <ele>846.2</ele>
        <time>2011-05-17T10:53:03Z</time>
      </trkpt>
      <trkpt lat="45.25421" lon="5.59778">
        <ele>847.1</ele>
        <time>2011-05-17T10:53:06Z</time>
      </trkpt>
      <trkpt lat="45.25426" lon="5.59769">
        <ele>847.5</ele>
        <time>2011-05-17T10:53:09Z</time>
      </trkpt>
      <trkpt lat="45.25429" lon="5.59758">
        <ele>848.2</ele>
        <time>2011-05-17T10:53:12Z</time>
      </trkpt>
      <trkpt lat="45.25432" lon="5.59746">
        <ele>848.3</ele>
        <time>2011-05-17T10:53:15Z</time>
      </trkpt>
      <trkpt lat="45.25435" lon="5.59739">
        <ele>849.3</ele>
        <time>2011-05-17T10:53:17Z</time>
      </trkpt>
      <trkpt lat="45.2544" lon="5.59728">
        <ele>850.4</ele>
        <time>2011-05-17T10:53:20Z</time>
      </trkpt>
      <trkpt lat="45.25446" lon="5.5972">
        <ele>851.3</ele>
        <time>2011-05-17T10:53:23Z</time>
      </trkpt>
      <trkpt lat="45.25453" lon="5.59714">
        <ele>851.6</ele>
        <time>2011-05-17T10:53:26Z</time>
      </trkpt>
      <trkpt lat="45.25461" lon="5.59709">
        <ele>852.9</ele>
        <time>2011-05-17T10:53:29Z</time>
      </trkpt>
      <trkpt lat="45.25468" lon="5.59706">
        <ele>854.2</ele>
        <time>2011-05-17T10:53:32Z</time>
      </trkpt>
      <trkpt lat="45.25476" lon="5.59703">
        <ele>855.1</ele>
        <time>2011-05-17T10:53:35Z</time>
      </trkpt>
      <trkpt lat="45.25478" lon="5.59702">
        <ele>855.2</ele>
        <time>2011-05-17T10:53:36Z</time>
      </trkpt>
      <trkpt lat="45.25491" lon="5.59701">
        <ele>855.4</ele>
        <time>2011-05-17T10:53:51Z</time>
      </trkpt>
      <trkpt lat="45.25494" lon="5.59713">
        <ele>856.4</ele>
        <time>2011-05-17T10:53:57Z</time>
      </trkpt>
      <trkpt lat="45.25495" lon="5.59725">
        <ele>856</ele>
        <time>2011-05-17T10:54:02Z</time>
      </trkpt>
      <trkpt lat="45.25497" lon="5.59736">
        <ele>856.5</ele>
        <time>2011-05-17T10:54:06Z</time>
      </trkpt>
      <trkpt lat="45.25497" lon="5.59747">
        <ele>858.1</ele>
        <time>2011-05-17T10:54:10Z</time>
      </trkpt>
      <trkpt lat="45.25492" lon="5.59758">
        <ele>859.2</ele>
        <time>2011-05-17T10:54:14Z</time>
      </trkpt>
      <trkpt lat="45.25489" lon="5.59766">
        <ele>859.7</ele>
        <time>2011-05-17T10:54:16Z</time>
      </trkpt>
      <trkpt lat="45.25486" lon="5.59774">
        <ele>860.2</ele>
        <time>2011-05-17T10:54:18Z</time>
      </trkpt>
      <trkpt lat="45.25484" lon="5.59783">
        <ele>860.3</ele>
        <time>2011-05-17T10:54:20Z</time>
      </trkpt>
      <trkpt lat="45.25482" lon="5.59793">
        <ele>860.2</ele>
        <time>2011-05-17T10:54:22Z</time>
      </trkpt>
      <trkpt lat="45.25482" lon="5.59802">
        <ele>859.9</ele>
        <time>2011-05-17T10:54:24Z</time>
      </trkpt>
      <trkpt lat="45.25483" lon="5.59814">
        <ele>860.7</ele>
        <time>2011-05-17T10:54:27Z</time>
      </trkpt>
      <trkpt lat="45.25486" lon="5.59826">
        <ele>861.9</ele>
        <time>2011-05-17T10:54:31Z</time>
      </trkpt>
      <trkpt lat="45.2549" lon="5.59836">
        <ele>862.7</ele>
        <time>2011-05-17T10:54:35Z</time>
      </trkpt>
      <trkpt lat="45.25491" lon="5.59848">
        <ele>864.7</ele>
        <time>2011-05-17T10:54:40Z</time>
      </trkpt>
      <trkpt lat="45.25491" lon="5.59851">
        <ele>864.7</ele>
        <time>2011-05-17T10:54:41Z</time>
      </trkpt>
      <trkpt lat="45.25491" lon="5.59868">
        <ele>866.3</ele>
        <time>2011-05-17T10:54:47Z</time>
      </trkpt>
      <trkpt lat="45.25492" lon="5.5988">
        <ele>868.2</ele>
        <time>2011-05-17T10:54:51Z</time>
      </trkpt>
      <trkpt lat="45.25495" lon="5.5989">
        <ele>869.9</ele>
        <time>2011-05-17T10:54:55Z</time>
      </trkpt>
      <trkpt lat="45.25498" lon="5.59901">
        <ele>871.5</ele>
        <time>2011-05-17T10:54:59Z</time>
      </trkpt>
      <trkpt lat="45.25502" lon="5.59911">
        <ele>873</ele>
        <time>2011-05-17T10:55:03Z</time>
      </trkpt>
      <trkpt lat="45.25508" lon="5.5992">
        <ele>875.5</ele>
        <time>2011-05-17T10:55:07Z</time>
      </trkpt>
      <trkpt lat="45.25513" lon="5.59929">
        <ele>877</ele>
        <time>2011-05-17T10:55:11Z</time>
      </trkpt>
      <trkpt lat="45.2552" lon="5.59937">
        <ele>877.5</ele>
        <time>2011-05-17T10:55:16Z</time>
      </trkpt>
      <trkpt lat="45.25528" lon="5.59943">
        <ele>879.3</ele>
        <time>2011-05-17T10:55:21Z</time>
      </trkpt>
      <trkpt lat="45.25535" lon="5.59949">
        <ele>880</ele>
        <time>2011-05-17T10:55:26Z</time>
      </trkpt>
      <trkpt lat="45.25542" lon="5.59955">
        <ele>880.8</ele>
        <time>2011-05-17T10:55:31Z</time>
      </trkpt>
      <trkpt lat="45.2555" lon="5.59962">
        <ele>881.8</ele>
        <time>2011-05-17T10:55:36Z</time>
      </trkpt>
      <trkpt lat="45.25557" lon="5.59968">
        <ele>882.3</ele>
        <time>2011-05-17T10:55:41Z</time>
      </trkpt>
      <trkpt lat="45.25558" lon="5.5997">
        <ele>882.8</ele>
        <time>2011-05-17T10:55:42Z</time>
      </trkpt>
      <trkpt lat="45.25571" lon="5.5998">
        <ele>884.9</ele>
        <time>2011-05-17T10:55:51Z</time>
      </trkpt>
      <trkpt lat="45.25579" lon="5.59985">
        <ele>886.5</ele>
        <time>2011-05-17T10:55:56Z</time>
      </trkpt>
      <trkpt lat="45.25585" lon="5.59991">
        <ele>887.3</ele>
        <time>2011-05-17T10:56:00Z</time>
      </trkpt>
      <trkpt lat="45.25591" lon="5.59997">
        <ele>886.9</ele>
        <time>2011-05-17T10:56:04Z</time>
      </trkpt>
      <trkpt lat="45.25597" lon="5.60003">
        <ele>886.9</ele>
        <time>2011-05-17T10:56:08Z</time>
      </trkpt>
      <trkpt lat="45.25603" lon="5.60009">
        <ele>887.8</ele>
        <time>2011-05-17T10:56:12Z</time>
      </trkpt>
      <trkpt lat="45.2561" lon="5.60016">
        <ele>888.5</ele>
        <time>2011-05-17T10:56:16Z</time>
      </trkpt>
      <trkpt lat="45.25617" lon="5.60022">
        <ele>888.4</ele>
        <time>2011-05-17T10:56:20Z</time>
      </trkpt>
      <trkpt lat="45.25624" lon="5.60027">
        <ele>889.1</ele>
        <time>2011-05-17T10:56:24Z</time>
      </trkpt>
      <trkpt lat="45.25633" lon="5.60031">
        <ele>889.7</ele>
        <time>2011-05-17T10:56:29Z</time>
      </trkpt>
      <trkpt lat="45.25641" lon="5.6003">
        <ele>891.1</ele>
        <time>2011-05-17T10:56:34Z</time>
      </trkpt>
      <trkpt lat="45.2565" lon="5.60029">
        <ele>891.5</ele>
        <time>2011-05-17T10:56:39Z</time>
      </trkpt>
      <trkpt lat="45.25658" lon="5.60029">
        <ele>891.7</ele>
        <time>2011-05-17T10:56:43Z</time>
      </trkpt>
      <trkpt lat="45.2566" lon="5.60028">
        <ele>891.8</ele>
        <time>2011-05-17T10:56:44Z</time>
      </trkpt>
      <trkpt lat="45.25674" lon="5.60027">
        <ele>891.6</ele>
        <time>2011-05-17T10:56:51Z</time>
      </trkpt>
      <trkpt lat="45.25682" lon="5.60025">
        <ele>893</ele>
        <time>2011-05-17T10:56:56Z</time>
      </trkpt>
      <trkpt lat="45.2569" lon="5.60021">
        <ele>894.8</ele>
        <time>2011-05-17T10:57:01Z</time>
      </trkpt>
      <trkpt lat="45.25697" lon="5.60016">
        <ele>896.2</ele>
        <time>2011-05-17T10:57:05Z</time>
      </trkpt>
      <trkpt lat="45.25705" lon="5.60011">
        <ele>897.1</ele>
        <time>2011-05-17T10:57:10Z</time>
      </trkpt>
      <trkpt lat="45.25713" lon="5.60008">
        <ele>897.6</ele>
        <time>2011-05-17T10:57:16Z</time>
      </trkpt>
      <trkpt lat="45.25721" lon="5.60008">
        <ele>898.5</ele>
        <time>2011-05-17T10:57:21Z</time>
      </trkpt>
      <trkpt lat="45.25729" lon="5.6001">
        <ele>900.4</ele>
        <time>2011-05-17T10:57:27Z</time>
      </trkpt>
      <trkpt lat="45.25737" lon="5.60008">
        <ele>900.5</ele>
        <time>2011-05-17T10:57:32Z</time>
      </trkpt>
      <trkpt lat="45.25745" lon="5.60007">
        <ele>902.4</ele>
        <time>2011-05-17T10:57:38Z</time>
      </trkpt>
      <trkpt lat="45.25754" lon="5.60005">
        <ele>902.8</ele>
        <time>2011-05-17T10:57:45Z</time>
      </trkpt>
      <trkpt lat="45.25755" lon="5.60004">
        <ele>903.3</ele>
        <time>2011-05-17T10:57:46Z</time>
      </trkpt>
      <trkpt lat="45.25769" lon="5.59996">
        <ele>907.2</ele>
        <time>2011-05-17T10:57:56Z</time>
      </trkpt>
      <trkpt lat="45.25774" lon="5.59988">
        <ele>908.7</ele>
        <time>2011-05-17T10:58:01Z</time>
      </trkpt>
      <trkpt lat="45.25782" lon="5.59982">
        <ele>909.4</ele>
        <time>2011-05-17T10:58:07Z</time>
      </trkpt>
      <trkpt lat="45.25789" lon="5.59974">
        <ele>911.8</ele>
        <time>2011-05-17T10:58:13Z</time>
      </trkpt>
      <trkpt lat="45.25794" lon="5.59966">
        <ele>913.1</ele>
        <time>2011-05-17T10:58:18Z</time>
      </trkpt>
      <trkpt lat="45.258" lon="5.59957">
        <ele>913.9</ele>
        <time>2011-05-17T10:58:24Z</time>
      </trkpt>
      <trkpt lat="45.25806" lon="5.59948">
        <ele>916.5</ele>
        <time>2011-05-17T10:58:30Z</time>
      </trkpt>
      <trkpt lat="45.25812" lon="5.59941">
        <ele>917.4</ele>
        <time>2011-05-17T10:58:36Z</time>
      </trkpt>
      <trkpt lat="45.2582" lon="5.59935">
        <ele>919.2</ele>
        <time>2011-05-17T10:58:42Z</time>
      </trkpt>
      <trkpt lat="45.25827" lon="5.59932">
        <ele>920.6</ele>
        <time>2011-05-17T10:58:48Z</time>
      </trkpt>
      <trkpt lat="45.25828" lon="5.59932">
        <ele>921.3</ele>
        <time>2011-05-17T10:58:49Z</time>
      </trkpt>
      <trkpt lat="45.25844" lon="5.59928">
        <ele>923.6</ele>
        <time>2011-05-17T10:59:01Z</time>
      </trkpt>
      <trkpt lat="45.25853" lon="5.59926">
        <ele>924.6</ele>
        <time>2011-05-17T10:59:07Z</time>
      </trkpt>
      <trkpt lat="45.25861" lon="5.59928">
        <ele>925.3</ele>
        <time>2011-05-17T10:59:13Z</time>
      </trkpt>
      <trkpt lat="45.25868" lon="5.59936">
        <ele>927.2</ele>
        <time>2011-05-17T10:59:21Z</time>
      </trkpt>
      <trkpt lat="45.25875" lon="5.59944">
        <ele>927.8</ele>
        <time>2011-05-17T10:59:28Z</time>
      </trkpt>
      <trkpt lat="45.25881" lon="5.59953">
        <ele>929.3</ele>
        <time>2011-05-17T10:59:34Z</time>
      </trkpt>
      <trkpt lat="45.25886" lon="5.59962">
        <ele>930</ele>
        <time>2011-05-17T10:59:40Z</time>
      </trkpt>
      <trkpt lat="45.25892" lon="5.59972">
        <ele>931.4</ele>
        <time>2011-05-17T10:59:46Z</time>
      </trkpt>
      <trkpt lat="45.25898" lon="5.5998">
        <ele>931.8</ele>
        <time>2011-05-17T10:59:51Z</time>
      </trkpt>
      <trkpt lat="45.25899" lon="5.59981">
        <ele>932.3</ele>
        <time>2011-05-17T10:59:52Z</time>
      </trkpt>
      <trkpt lat="45.2591" lon="5.59995">
        <ele>932.2</ele>
        <time>2011-05-17T10:59:58Z</time>
      </trkpt>
      <trkpt lat="45.25916" lon="5.60002">
        <ele>932</ele>
        <time>2011-05-17T11:00:01Z</time>
      </trkpt>
      <trkpt lat="45.25922" lon="5.6001">
        <ele>932.6</ele>
        <time>2011-05-17T11:00:04Z</time>
      </trkpt>
      <trkpt lat="45.25927" lon="5.60018">
        <ele>933</ele>
        <time>2011-05-17T11:00:07Z</time>
      </trkpt>
      <trkpt lat="45.25931" lon="5.60025">
        <ele>933.7</ele>
        <time>2011-05-17T11:00:09Z</time>
      </trkpt>
      <trkpt lat="45.25935" lon="5.60032">
        <ele>934.1</ele>
        <time>2011-05-17T11:00:11Z</time>
      </trkpt>
      <trkpt lat="45.2594" lon="5.6004">
        <ele>933.9</ele>
        <time>2011-05-17T11:00:13Z</time>
      </trkpt>
      <trkpt lat="45.25945" lon="5.60047">
        <ele>933.7</ele>
        <time>2011-05-17T11:00:15Z</time>
      </trkpt>
      <trkpt lat="45.25949" lon="5.60055">
        <ele>933.4</ele>
        <time>2011-05-17T11:00:17Z</time>
      </trkpt>
      <trkpt lat="45.25954" lon="5.60062">
        <ele>933.3</ele>
        <time>2011-05-17T11:00:19Z</time>
      </trkpt>
      <trkpt lat="45.25958" lon="5.60069">
        <ele>933.4</ele>
        <time>2011-05-17T11:00:21Z</time>
      </trkpt>
      <trkpt lat="45.25964" lon="5.60079">
        <ele>933.4</ele>
        <time>2011-05-17T11:00:24Z</time>
      </trkpt>
      <trkpt lat="45.25968" lon="5.60089">
        <ele>933.9</ele>
        <time>2011-05-17T11:00:27Z</time>
      </trkpt>
      <trkpt lat="45.25971" lon="5.601">
        <ele>935.3</ele>
        <time>2011-05-17T11:00:30Z</time>
      </trkpt>
      <trkpt lat="45.25974" lon="5.60111">
        <ele>936.2</ele>
        <time>2011-05-17T11:00:33Z</time>
      </trkpt>
      <trkpt lat="45.25976" lon="5.60122">
        <ele>937.2</ele>
        <time>2011-05-17T11:00:37Z</time>
      </trkpt>
      <trkpt lat="45.25979" lon="5.60132">
        <ele>937</ele>
        <time>2011-05-17T11:00:41Z</time>
      </trkpt>
      <trkpt lat="45.25982" lon="5.60142">
        <ele>937.6</ele>
        <time>2011-05-17T11:00:44Z</time>
      </trkpt>
      <trkpt lat="45.25984" lon="5.60152">
        <ele>938.5</ele>
        <time>2011-05-17T11:00:47Z</time>
      </trkpt>
      <trkpt lat="45.25986" lon="5.60164">
        <ele>939.1</ele>
        <time>2011-05-17T11:00:51Z</time>
      </trkpt>
      <trkpt lat="45.25988" lon="5.60175">
        <ele>939.1</ele>
        <time>2011-05-17T11:00:55Z</time>
      </trkpt>
      <trkpt lat="45.25989" lon="5.60179">
        <ele>939.6</ele>
        <time>2011-05-17T11:00:56Z</time>
      </trkpt>
      <trkpt lat="45.25993" lon="5.60197">
        <ele>939.8</ele>
        <time>2011-05-17T11:01:02Z</time>
      </trkpt>
      <trkpt lat="45.25995" lon="5.60209">
        <ele>939.3</ele>
        <time>2011-05-17T11:01:08Z</time>
      </trkpt>
      <trkpt lat="45.25996" lon="5.60221">
        <ele>939.9</ele>
        <time>2011-05-17T11:01:42Z</time>
      </trkpt>
      <trkpt lat="45.26" lon="5.60231">
        <ele>939.1</ele>
        <time>2011-05-17T11:01:49Z</time>
      </trkpt>
      <trkpt lat="45.26003" lon="5.60243">
        <ele>942.7</ele>
        <time>2011-05-17T11:02:10Z</time>
      </trkpt>
      <trkpt lat="45.26003" lon="5.60243">
        <ele>942.7</ele>
        <time>2011-05-17T11:02:11Z</time>
      </trkpt>
      <trkpt lat="45.26006" lon="5.60257">
        <ele>943</ele>
        <time>2011-05-17T11:04:10Z</time>
      </trkpt>
      <trkpt lat="45.2601" lon="5.60277">
        <ele>943.8</ele>
        <time>2011-05-17T11:04:18Z</time>
      </trkpt>
      <trkpt lat="45.26016" lon="5.60286">
        <ele>944.3</ele>
        <time>2011-05-17T11:04:22Z</time>
      </trkpt>
      <trkpt lat="45.26021" lon="5.60293">
        <ele>944.1</ele>
        <time>2011-05-17T11:04:25Z</time>
      </trkpt>
      <trkpt lat="45.26025" lon="5.60298">
        <ele>944.1</ele>
        <time>2011-05-17T11:04:27Z</time>
      </trkpt>
      <trkpt lat="45.2603" lon="5.60305">
        <ele>944</ele>
        <time>2011-05-17T11:04:29Z</time>
      </trkpt>
      <trkpt lat="45.26034" lon="5.60312">
        <ele>944</ele>
        <time>2011-05-17T11:04:31Z</time>
      </trkpt>
      <trkpt lat="45.26039" lon="5.60322">
        <ele>943.4</ele>
        <time>2011-05-17T11:04:34Z</time>
      </trkpt>
      <trkpt lat="45.26041" lon="5.60331">
        <ele>943.1</ele>
        <time>2011-05-17T11:04:36Z</time>
      </trkpt>
      <trkpt lat="45.26044" lon="5.6034">
        <ele>943.1</ele>
        <time>2011-05-17T11:04:38Z</time>
      </trkpt>
      <trkpt lat="45.26047" lon="5.60349">
        <ele>943.1</ele>
        <time>2011-05-17T11:04:40Z</time>
      </trkpt>
      <trkpt lat="45.26049" lon="5.6036">
        <ele>942.3</ele>
        <time>2011-05-17T11:04:42Z</time>
      </trkpt>
      <trkpt lat="45.26052" lon="5.6037">
        <ele>941.9</ele>
        <time>2011-05-17T11:04:44Z</time>
      </trkpt>
      <trkpt lat="45.26054" lon="5.60379">
        <ele>941.8</ele>
        <time>2011-05-17T11:04:46Z</time>
      </trkpt>
      <trkpt lat="45.26054" lon="5.60388">
        <ele>942</ele>
        <time>2011-05-17T11:04:48Z</time>
      </trkpt>
      <trkpt lat="45.26054" lon="5.604">
        <ele>942.3</ele>
        <time>2011-05-17T11:04:50Z</time>
      </trkpt>
      <trkpt lat="45.26054" lon="5.60407">
        <ele>942.3</ele>
        <time>2011-05-17T11:04:51Z</time>
      </trkpt>
      <trkpt lat="45.26054" lon="5.60413">
        <ele>942.3</ele>
        <time>2011-05-17T11:04:52Z</time>
      </trkpt>
      <trkpt lat="45.26054" lon="5.6042">
        <ele>942.4</ele>
        <time>2011-05-17T11:04:53Z</time>
      </trkpt>
      <trkpt lat="45.26054" lon="5.60427">
        <ele>942.4</ele>
        <time>2011-05-17T11:04:54Z</time>
      </trkpt>
      <trkpt lat="45.26054" lon="5.60434">
        <ele>942.4</ele>
        <time>2011-05-17T11:04:55Z</time>
      </trkpt>
      <trkpt lat="45.26055" lon="5.60447">
        <ele>942.4</ele>
        <time>2011-05-17T11:04:57Z</time>
      </trkpt>
      <trkpt lat="45.26056" lon="5.60457">
        <ele>942.5</ele>
        <time>2011-05-17T11:04:59Z</time>
      </trkpt>
      <trkpt lat="45.26058" lon="5.60468">
        <ele>942.8</ele>
        <time>2011-05-17T11:05:01Z</time>
      </trkpt>
      <trkpt lat="45.26058" lon="5.60477">
        <ele>943.1</ele>
        <time>2011-05-17T11:05:03Z</time>
      </trkpt>
      <trkpt lat="45.26058" lon="5.60489">
        <ele>943.3</ele>
        <time>2011-05-17T11:05:06Z</time>
      </trkpt>
      <trkpt lat="45.26062" lon="5.60498">
        <ele>944.9</ele>
        <time>2011-05-17T11:05:09Z</time>
      </trkpt>
      <trkpt lat="45.26069" lon="5.60502">
        <ele>946.7</ele>
        <time>2011-05-17T11:05:13Z</time>
      </trkpt>
      <trkpt lat="45.26071" lon="5.60502">
        <ele>946.6</ele>
        <time>2011-05-17T11:05:14Z</time>
      </trkpt>
      <trkpt lat="45.26083" lon="5.60498">
        <ele>947.4</ele>
        <time>2011-05-17T11:05:20Z</time>
      </trkpt>
      <trkpt lat="45.26089" lon="5.60493">
        <ele>947.4</ele>
        <time>2011-05-17T11:05:23Z</time>
      </trkpt>
      <trkpt lat="45.26095" lon="5.60488">
        <ele>947.3</ele>
        <time>2011-05-17T11:05:26Z</time>
      </trkpt>
      <trkpt lat="45.26103" lon="5.60482">
        <ele>947.1</ele>
        <time>2011-05-17T11:05:29Z</time>
      </trkpt>
      <trkpt lat="45.26108" lon="5.60475">
        <ele>946.7</ele>
        <time>2011-05-17T11:05:31Z</time>
      </trkpt>
      <trkpt lat="45.26114" lon="5.60469">
        <ele>946.4</ele>
        <time>2011-05-17T11:05:33Z</time>
      </trkpt>
      <trkpt lat="45.26118" lon="5.60464">
        <ele>946.3</ele>
        <time>2011-05-17T11:05:34Z</time>
      </trkpt>
      <trkpt lat="45.26121" lon="5.60459">
        <ele>946.2</ele>
        <time>2011-05-17T11:05:35Z</time>
      </trkpt>
      <trkpt lat="45.26125" lon="5.60453">
        <ele>946</ele>
        <time>2011-05-17T11:05:36Z</time>
      </trkpt>
      <trkpt lat="45.2613" lon="5.60447">
        <ele>946</ele>
        <time>2011-05-17T11:05:37Z</time>
      </trkpt>
      <trkpt lat="45.26135" lon="5.60441">
        <ele>945.2</ele>
        <time>2011-05-17T11:05:38Z</time>
      </trkpt>
      <trkpt lat="45.2614" lon="5.60436">
        <ele>944.6</ele>
        <time>2011-05-17T11:05:39Z</time>
      </trkpt>
      <trkpt lat="45.26146" lon="5.60433">
        <ele>944.2</ele>
        <time>2011-05-17T11:05:40Z</time>
      </trkpt>
      <trkpt lat="45.26152" lon="5.60431">
        <ele>943.8</ele>
        <time>2011-05-17T11:05:41Z</time>
      </trkpt>
      <trkpt lat="45.26158" lon="5.60431">
        <ele>943.4</ele>
        <time>2011-05-17T11:05:42Z</time>
      </trkpt>
      <trkpt lat="45.26165" lon="5.60428">
        <ele>943.1</ele>
        <time>2011-05-17T11:05:43Z</time>
      </trkpt>
      <trkpt lat="45.26172" lon="5.60425">
        <ele>942.9</ele>
        <time>2011-05-17T11:05:44Z</time>
      </trkpt>
      <trkpt lat="45.26178" lon="5.60421">
        <ele>941.3</ele>
        <time>2011-05-17T11:05:45Z</time>
      </trkpt>
      <trkpt lat="45.26184" lon="5.60418">
        <ele>940.2</ele>
        <time>2011-05-17T11:05:46Z</time>
      </trkpt>
      <trkpt lat="45.26189" lon="5.60417">
        <ele>939.4</ele>
        <time>2011-05-17T11:05:47Z</time>
      </trkpt>
      <trkpt lat="45.26194" lon="5.60416">
        <ele>938.5</ele>
        <time>2011-05-17T11:05:48Z</time>
      </trkpt>
      <trkpt lat="45.26199" lon="5.60416">
        <ele>937.9</ele>
        <time>2011-05-17T11:05:49Z</time>
      </trkpt>
      <trkpt lat="45.26203" lon="5.60417">
        <ele>937.4</ele>
        <time>2011-05-17T11:05:50Z</time>
      </trkpt>
      <trkpt lat="45.26209" lon="5.60418">
        <ele>936.2</ele>
        <time>2011-05-17T11:05:51Z</time>
      </trkpt>
      <trkpt lat="45.26215" lon="5.6042">
        <ele>935.3</ele>
        <time>2011-05-17T11:05:52Z</time>
      </trkpt>
      <trkpt lat="45.26221" lon="5.60423">
        <ele>934.6</ele>
        <time>2011-05-17T11:05:53Z</time>
      </trkpt>
      <trkpt lat="45.26227" lon="5.60425">
        <ele>932.9</ele>
        <time>2011-05-17T11:05:54Z</time>
      </trkpt>
      <trkpt lat="45.26233" lon="5.60428">
        <ele>931.7</ele>
        <time>2011-05-17T11:05:55Z</time>
      </trkpt>
      <trkpt lat="45.26238" lon="5.60429">
        <ele>930.8</ele>
        <time>2011-05-17T11:05:56Z</time>
      </trkpt>
      <trkpt lat="45.26241" lon="5.6044">
        <ele>921.4</ele>
        <time>2011-05-17T11:06:04Z</time>
      </trkpt>
      <trkpt lat="45.26234" lon="5.60448">
        <ele>918.3</ele>
        <time>2011-05-17T11:06:07Z</time>
      </trkpt>
      <trkpt lat="45.26226" lon="5.60453">
        <ele>916.5</ele>
        <time>2011-05-17T11:06:09Z</time>
      </trkpt>
      <trkpt lat="45.2622" lon="5.6046">
        <ele>911.8</ele>
        <time>2011-05-17T11:06:11Z</time>
      </trkpt>
      <trkpt lat="45.26216" lon="5.60464">
        <ele>910.3</ele>
        <time>2011-05-17T11:06:12Z</time>
      </trkpt>
      <trkpt lat="45.2621" lon="5.60472">
        <ele>905.2</ele>
        <time>2011-05-17T11:06:15Z</time>
      </trkpt>
      <trkpt lat="45.2621" lon="5.60474">
        <ele>903.5</ele>
        <time>2011-05-17T11:06:16Z</time>
      </trkpt>
      <trkpt lat="45.26225" lon="5.60482">
        <ele>898.3</ele>
        <time>2011-05-17T11:06:22Z</time>
      </trkpt>
      <trkpt lat="45.26234" lon="5.60484">
        <ele>896</ele>
        <time>2011-05-17T11:06:24Z</time>
      </trkpt>
      <trkpt lat="45.26241" lon="5.60488">
        <ele>894.1</ele>
        <time>2011-05-17T11:06:26Z</time>
      </trkpt>
      <trkpt lat="45.26249" lon="5.60489">
        <ele>892.6</ele>
        <time>2011-05-17T11:06:28Z</time>
      </trkpt>
      <trkpt lat="45.26256" lon="5.60486">
        <ele>890.5</ele>
        <time>2011-05-17T11:06:30Z</time>
      </trkpt>
      <trkpt lat="45.26264" lon="5.60484">
        <ele>888.2</ele>
        <time>2011-05-17T11:06:33Z</time>
      </trkpt>
      <trkpt lat="45.26271" lon="5.60487">
        <ele>886.4</ele>
        <time>2011-05-17T11:06:36Z</time>
      </trkpt>
      <trkpt lat="45.26277" lon="5.60489">
        <ele>884.2</ele>
        <time>2011-05-17T11:06:39Z</time>
      </trkpt>
      <trkpt lat="45.26285" lon="5.60493">
        <ele>881.4</ele>
        <time>2011-05-17T11:06:42Z</time>
      </trkpt>
      <trkpt lat="45.26293" lon="5.60494">
        <ele>877.8</ele>
        <time>2011-05-17T11:06:45Z</time>
      </trkpt>
      <trkpt lat="45.26301" lon="5.60495">
        <ele>873.9</ele>
        <time>2011-05-17T11:06:48Z</time>
      </trkpt>
      <trkpt lat="45.26309" lon="5.60495">
        <ele>870.4</ele>
        <time>2011-05-17T11:06:51Z</time>
      </trkpt>
      <trkpt lat="45.26315" lon="5.60494">
        <ele>868.6</ele>
        <time>2011-05-17T11:06:53Z</time>
      </trkpt>
      <trkpt lat="45.26324" lon="5.60491">
        <ele>865.2</ele>
        <time>2011-05-17T11:06:57Z</time>
      </trkpt>
      <trkpt lat="45.26331" lon="5.60488">
        <ele>861.9</ele>
        <time>2011-05-17T11:07:00Z</time>
      </trkpt>
      <trkpt lat="45.26339" lon="5.60487">
        <ele>858.5</ele>
        <time>2011-05-17T11:07:03Z</time>
      </trkpt>
      <trkpt lat="45.26347" lon="5.60486">
        <ele>855.8</ele>
        <time>2011-05-17T11:07:06Z</time>
      </trkpt>
      <trkpt lat="45.26354" lon="5.60486">
        <ele>852.6</ele>
        <time>2011-05-17T11:07:09Z</time>
      </trkpt>
      <trkpt lat="45.26361" lon="5.60485">
        <ele>848.1</ele>
        <time>2011-05-17T11:07:12Z</time>
      </trkpt>
      <trkpt lat="45.26367" lon="5.60483">
        <ele>846</ele>
        <time>2011-05-17T11:07:14Z</time>
      </trkpt>
      <trkpt lat="45.26375" lon="5.6048">
        <ele>843.2</ele>
        <time>2011-05-17T11:07:17Z</time>
      </trkpt>
      <trkpt lat="45.26378" lon="5.60479">
        <ele>842.3</ele>
        <time>2011-05-17T11:07:18Z</time>
      </trkpt>
      <trkpt lat="45.2639" lon="5.60475">
        <ele>836.6</ele>
        <time>2011-05-17T11:07:22Z</time>
      </trkpt>
      <trkpt lat="45.26397" lon="5.60475">
        <ele>833.5</ele>
        <time>2011-05-17T11:07:24Z</time>
      </trkpt>
      <trkpt lat="45.26405" lon="5.60476">
        <ele>831</ele>
        <time>2011-05-17T11:07:26Z</time>
      </trkpt>
      <trkpt lat="45.26413" lon="5.60477">
        <ele>829</ele>
        <time>2011-05-17T11:07:28Z</time>
      </trkpt>
      <trkpt lat="45.26419" lon="5.6048">
        <ele>827.2</ele>
        <time>2011-05-17T11:07:30Z</time>
      </trkpt>
      <trkpt lat="45.26427" lon="5.60483">
        <ele>826.2</ele>
        <time>2011-05-17T11:07:32Z</time>
      </trkpt>
      <trkpt lat="45.26435" lon="5.60486">
        <ele>824.1</ele>
        <time>2011-05-17T11:07:34Z</time>
      </trkpt>
      <trkpt lat="45.26441" lon="5.60487">
        <ele>822.1</ele>
        <time>2011-05-17T11:07:36Z</time>
      </trkpt>
      <trkpt lat="45.26448" lon="5.60491">
        <ele>820.4</ele>
        <time>2011-05-17T11:07:38Z</time>
      </trkpt>
      <trkpt lat="45.26455" lon="5.60494">
        <ele>818.6</ele>
        <time>2011-05-17T11:07:40Z</time>
      </trkpt>
      <trkpt lat="45.26463" lon="5.60499">
        <ele>817.8</ele>
        <time>2011-05-17T11:07:42Z</time>
      </trkpt>
      <trkpt lat="45.26471" lon="5.60501">
        <ele>814.9</ele>
        <time>2011-05-17T11:07:49Z</time>
      </trkpt>
      <trkpt lat="45.2648" lon="5.60503">
        <ele>814.4</ele>
        <time>2011-05-17T11:08:04Z</time>
      </trkpt>
      <trkpt lat="45.26488" lon="5.60498">
        <ele>814.8</ele>
        <time>2011-05-17T11:08:26Z</time>
      </trkpt>
      <trkpt lat="45.26488" lon="5.60498">
        <ele>814.7</ele>
        <time>2011-05-17T11:08:27Z</time>
      </trkpt>
      <trkpt lat="45.26497" lon="5.60514">
        <ele>813.4</ele>
        <time>2011-05-17T11:09:22Z</time>
      </trkpt>
      <trkpt lat="45.26502" lon="5.6052">
        <ele>812</ele>
        <time>2011-05-17T11:09:24Z</time>
      </trkpt>
      <trkpt lat="45.26506" lon="5.60526">
        <ele>810.2</ele>
        <time>2011-05-17T11:09:26Z</time>
      </trkpt>
      <trkpt lat="45.26513" lon="5.60531">
        <ele>809.4</ele>
        <time>2011-05-17T11:09:28Z</time>
      </trkpt>
      <trkpt lat="45.26516" lon="5.60535">
        <ele>809.1</ele>
        <time>2011-05-17T11:09:29Z</time>
      </trkpt>
      <trkpt lat="45.26525" lon="5.60543">
        <ele>806.4</ele>
        <time>2011-05-17T11:09:32Z</time>
      </trkpt>
      <trkpt lat="45.26529" lon="5.60545">
        <ele>805.3</ele>
        <time>2011-05-17T11:09:33Z</time>
      </trkpt>
      <trkpt lat="45.26534" lon="5.60548">
        <ele>804.5</ele>
        <time>2011-05-17T11:09:34Z</time>
      </trkpt>
      <trkpt lat="45.26541" lon="5.60554">
        <ele>802.5</ele>
        <time>2011-05-17T11:09:36Z</time>
      </trkpt>
      <trkpt lat="45.26545" lon="5.60557">
        <ele>801.5</ele>
        <time>2011-05-17T11:09:37Z</time>
      </trkpt>
      <trkpt lat="45.26553" lon="5.60562">
        <ele>800.2</ele>
        <time>2011-05-17T11:09:39Z</time>
      </trkpt>
      <trkpt lat="45.2656" lon="5.60565">
        <ele>797.2</ele>
        <time>2011-05-17T11:09:41Z</time>
      </trkpt>
      <trkpt lat="45.26568" lon="5.60569">
        <ele>795.6</ele>
        <time>2011-05-17T11:09:43Z</time>
      </trkpt>
      <trkpt lat="45.26576" lon="5.60571">
        <ele>794.7</ele>
        <time>2011-05-17T11:09:45Z</time>
      </trkpt>
      <trkpt lat="45.26583" lon="5.60574">
        <ele>793.7</ele>
        <time>2011-05-17T11:09:47Z</time>
      </trkpt>
      <trkpt lat="45.2659" lon="5.60576">
        <ele>792.7</ele>
        <time>2011-05-17T11:09:49Z</time>
      </trkpt>
      <trkpt lat="45.26597" lon="5.60578">
        <ele>791.1</ele>
        <time>2011-05-17T11:09:52Z</time>
      </trkpt>
      <trkpt lat="45.26604" lon="5.60579">
        <ele>789.3</ele>
        <time>2011-05-17T11:09:55Z</time>
      </trkpt>
      <trkpt lat="45.26612" lon="5.60583">
        <ele>787.7</ele>
        <time>2011-05-17T11:09:58Z</time>
      </trkpt>
      <trkpt lat="45.2662" lon="5.60587">
        <ele>784.6</ele>
        <time>2011-05-17T11:10:01Z</time>
      </trkpt>
      <trkpt lat="45.26628" lon="5.60591">
        <ele>782.5</ele>
        <time>2011-05-17T11:10:03Z</time>
      </trkpt>
      <trkpt lat="45.26634" lon="5.60596">
        <ele>780.5</ele>
        <time>2011-05-17T11:10:05Z</time>
      </trkpt>
      <trkpt lat="45.26642" lon="5.60602">
        <ele>777.2</ele>
        <time>2011-05-17T11:10:08Z</time>
      </trkpt>
      <trkpt lat="45.26639" lon="5.60612">
        <ele>770.5</ele>
        <time>2011-05-17T11:10:14Z</time>
      </trkpt>
      <trkpt lat="45.26632" lon="5.6062">
        <ele>766.7</ele>
        <time>2011-05-17T11:10:18Z</time>
      </trkpt>
      <trkpt lat="45.26625" lon="5.60622">
        <ele>764.8</ele>
        <time>2011-05-17T11:10:20Z</time>
      </trkpt>
      <trkpt lat="45.26619" lon="5.60625">
        <ele>761.7</ele>
        <time>2011-05-17T11:10:22Z</time>
      </trkpt>
      <trkpt lat="45.26611" lon="5.60628">
        <ele>758</ele>
        <time>2011-05-17T11:10:25Z</time>
      </trkpt>
      <trkpt lat="45.26606" lon="5.60631">
        <ele>755.7</ele>
        <time>2011-05-17T11:10:27Z</time>
      </trkpt>
      <trkpt lat="45.266" lon="5.60634">
        <ele>753.8</ele>
        <time>2011-05-17T11:10:29Z</time>
      </trkpt>
      <trkpt lat="45.26596" lon="5.60636">
        <ele>751.8</ele>
        <time>2011-05-17T11:10:30Z</time>
      </trkpt>
      <trkpt lat="45.26585" lon="5.6064">
        <ele>747.6</ele>
        <time>2011-05-17T11:10:33Z</time>
      </trkpt>
      <trkpt lat="45.26577" lon="5.60643">
        <ele>745.6</ele>
        <time>2011-05-17T11:10:35Z</time>
      </trkpt>
      <trkpt lat="45.2657" lon="5.60647">
        <ele>743.2</ele>
        <time>2011-05-17T11:10:37Z</time>
      </trkpt>
      <trkpt lat="45.26566" lon="5.60648">
        <ele>741.8</ele>
        <time>2011-05-17T11:10:38Z</time>
      </trkpt>
      <trkpt lat="45.26561" lon="5.60651">
        <ele>740.8</ele>
        <time>2011-05-17T11:10:39Z</time>
      </trkpt>
      <trkpt lat="45.26556" lon="5.60653">
        <ele>738.8</ele>
        <time>2011-05-17T11:10:40Z</time>
      </trkpt>
      <trkpt lat="45.26551" lon="5.60655">
        <ele>737.2</ele>
        <time>2011-05-17T11:10:41Z</time>
      </trkpt>
      <trkpt lat="45.26546" lon="5.60656">
        <ele>736.1</ele>
        <time>2011-05-17T11:10:42Z</time>
      </trkpt>
      <trkpt lat="45.26541" lon="5.60658">
        <ele>734.3</ele>
        <time>2011-05-17T11:10:43Z</time>
      </trkpt>
      <trkpt lat="45.26536" lon="5.6066">
        <ele>732.9</ele>
        <time>2011-05-17T11:10:44Z</time>
      </trkpt>
      <trkpt lat="45.2653" lon="5.60662">
        <ele>731.9</ele>
        <time>2011-05-17T11:10:45Z</time>
      </trkpt>
      <trkpt lat="45.26522" lon="5.60665">
        <ele>729.7</ele>
        <time>2011-05-17T11:10:47Z</time>
      </trkpt>
      <trkpt lat="45.26515" lon="5.6067">
        <ele>727.6</ele>
        <time>2011-05-17T11:10:49Z</time>
      </trkpt>
      <trkpt lat="45.2651" lon="5.60673">
        <ele>726.5</ele>
        <time>2011-05-17T11:10:50Z</time>
      </trkpt>
      <trkpt lat="45.26502" lon="5.60675">
        <ele>725.1</ele>
        <time>2011-05-17T11:10:52Z</time>
      </trkpt>
      <trkpt lat="45.26494" lon="5.60679">
        <ele>723.1</ele>
        <time>2011-05-17T11:10:54Z</time>
      </trkpt>
      <trkpt lat="45.2649" lon="5.60681">
        <ele>722.4</ele>
        <time>2011-05-17T11:10:55Z</time>
      </trkpt>
      <trkpt lat="45.26486" lon="5.60683">
        <ele>720.9</ele>
        <time>2011-05-17T11:10:56Z</time>
      </trkpt>
      <trkpt lat="45.26481" lon="5.60683">
        <ele>719.8</ele>
        <time>2011-05-17T11:10:57Z</time>
      </trkpt>
      <trkpt lat="45.26472" lon="5.60681">
        <ele>717.9</ele>
        <time>2011-05-17T11:10:59Z</time>
      </trkpt>
      <trkpt lat="45.26464" lon="5.60679">
        <ele>716.5</ele>
        <time>2011-05-17T11:11:01Z</time>
      </trkpt>
      <trkpt lat="45.26459" lon="5.6068">
        <ele>715.2</ele>
        <time>2011-05-17T11:11:02Z</time>
      </trkpt>
      <trkpt lat="45.26454" lon="5.60681">
        <ele>714.3</ele>
        <time>2011-05-17T11:11:03Z</time>
      </trkpt>
      <trkpt lat="45.2645" lon="5.60682">
        <ele>713.6</ele>
        <time>2011-05-17T11:11:04Z</time>
      </trkpt>
      <trkpt lat="45.26444" lon="5.60684">
        <ele>712.9</ele>
        <time>2011-05-17T11:11:05Z</time>
      </trkpt>
      <trkpt lat="45.26439" lon="5.60687">
        <ele>712.3</ele>
        <time>2011-05-17T11:11:06Z</time>
      </trkpt>
      <trkpt lat="45.26435" lon="5.60691">
        <ele>711.9</ele>
        <time>2011-05-17T11:11:07Z</time>
      </trkpt>
      <trkpt lat="45.26429" lon="5.607">
        <ele>710.2</ele>
        <time>2011-05-17T11:11:09Z</time>
      </trkpt>
      <trkpt lat="45.26423" lon="5.60708">
        <ele>709.2</ele>
        <time>2011-05-17T11:11:11Z</time>
      </trkpt>
      <trkpt lat="45.26417" lon="5.60717">
        <ele>707.3</ele>
        <time>2011-05-17T11:11:17Z</time>
      </trkpt>
      <trkpt lat="45.26413" lon="5.60728">
        <ele>707</ele>
        <time>2011-05-17T11:11:26Z</time>
      </trkpt>
      <trkpt lat="45.26409" lon="5.60738">
        <ele>706.8</ele>
        <time>2011-05-17T11:11:56Z</time>
      </trkpt>
      <trkpt lat="45.26408" lon="5.60739">
        <ele>706.8</ele>
        <time>2011-05-17T11:11:57Z</time>
      </trkpt>
      <trkpt lat="45.26394" lon="5.60746">
        <ele>706.1</ele>
        <time>2011-05-17T11:12:04Z</time>
      </trkpt>
      <trkpt lat="45.26387" lon="5.60748">
        <ele>705.6</ele>
        <time>2011-05-17T11:12:06Z</time>
      </trkpt>
      <trkpt lat="45.2638" lon="5.60751">
        <ele>705</ele>
        <time>2011-05-17T11:12:08Z</time>
      </trkpt>
      <trkpt lat="45.26374" lon="5.60758">
        <ele>702</ele>
        <time>2011-05-17T11:12:10Z</time>
      </trkpt>
      <trkpt lat="45.26376" lon="5.60769">
        <ele>693.5</ele>
        <time>2011-05-17T11:12:16Z</time>
      </trkpt>
      <trkpt lat="45.2638" lon="5.60771">
        <ele>692.5</ele>
        <time>2011-05-17T11:12:17Z</time>
      </trkpt>
      <trkpt lat="45.26386" lon="5.60774">
        <ele>690.5</ele>
        <time>2011-05-17T11:12:18Z</time>
      </trkpt>
      <trkpt lat="45.26392" lon="5.60777">
        <ele>688.9</ele>
        <time>2011-05-17T11:12:19Z</time>
      </trkpt>
      <trkpt lat="45.264" lon="5.6078">
        <ele>687.8</ele>
        <time>2011-05-17T11:12:20Z</time>
      </trkpt>
      <trkpt lat="45.26406" lon="5.60784">
        <ele>685.7</ele>
        <time>2011-05-17T11:12:21Z</time>
      </trkpt>
      <trkpt lat="45.26412" lon="5.60788">
        <ele>683</ele>
        <time>2011-05-17T11:12:23Z</time>
      </trkpt>
      <trkpt lat="45.26421" lon="5.6079">
        <ele>680.4</ele>
        <time>2011-05-17T11:12:26Z</time>
      </trkpt>
      <trkpt lat="45.26428" lon="5.60794">
        <ele>677</ele>
        <time>2011-05-17T11:12:29Z</time>
      </trkpt>
      <trkpt lat="45.26434" lon="5.60802">
        <ele>672.8</ele>
        <time>2011-05-17T11:12:32Z</time>
      </trkpt>
      <trkpt lat="45.26438" lon="5.60811">
        <ele>669.3</ele>
        <time>2011-05-17T11:12:34Z</time>
      </trkpt>
      <trkpt lat="45.26444" lon="5.60816">
        <ele>666.1</ele>
        <time>2011-05-17T11:12:36Z</time>
      </trkpt>
      <trkpt lat="45.26448" lon="5.6082">
        <ele>663.7</ele>
        <time>2011-05-17T11:12:37Z</time>
      </trkpt>
      <trkpt lat="45.26454" lon="5.60822">
        <ele>661.9</ele>
        <time>2011-05-17T11:12:38Z</time>
      </trkpt>
      <trkpt lat="45.26458" lon="5.60826">
        <ele>660.6</ele>
        <time>2011-05-17T11:12:39Z</time>
      </trkpt>
      <trkpt lat="45.26463" lon="5.6083">
        <ele>658.2</ele>
        <time>2011-05-17T11:12:40Z</time>
      </trkpt>
      <trkpt lat="45.26467" lon="5.60836">
        <ele>656.3</ele>
        <time>2011-05-17T11:12:41Z</time>
      </trkpt>
      <trkpt lat="45.26471" lon="5.6084">
        <ele>654.9</ele>
        <time>2011-05-17T11:12:42Z</time>
      </trkpt>
      <trkpt lat="45.26476" lon="5.60844">
        <ele>653.9</ele>
        <time>2011-05-17T11:12:43Z</time>
      </trkpt>
      <trkpt lat="45.26481" lon="5.60849">
        <ele>652.3</ele>
        <time>2011-05-17T11:12:44Z</time>
      </trkpt>
      <trkpt lat="45.26485" lon="5.60854">
        <ele>651</ele>
        <time>2011-05-17T11:12:45Z</time>
      </trkpt>
      <trkpt lat="45.26479" lon="5.60864">
        <ele>643</ele>
        <time>2011-05-17T11:12:55Z</time>
      </trkpt>
      <trkpt lat="45.26479" lon="5.60876">
        <ele>640.5</ele>
        <time>2011-05-17T11:13:00Z</time>
      </trkpt>
      <trkpt lat="45.26482" lon="5.6088">
        <ele>639.5</ele>
        <time>2011-05-17T11:13:01Z</time>
      </trkpt>
      <trkpt lat="45.26488" lon="5.60884">
        <ele>638</ele>
        <time>2011-05-17T11:13:03Z</time>
      </trkpt>
      <trkpt lat="45.26493" lon="5.60886">
        <ele>637.3</ele>
        <time>2011-05-17T11:13:04Z</time>
      </trkpt>
      <trkpt lat="45.26499" lon="5.6089">
        <ele>636.8</ele>
        <time>2011-05-17T11:13:05Z</time>
      </trkpt>
      <trkpt lat="45.26505" lon="5.60893">
        <ele>635.4</ele>
        <time>2011-05-17T11:13:06Z</time>
      </trkpt>
      <trkpt lat="45.26511" lon="5.60897">
        <ele>634.3</ele>
        <time>2011-05-17T11:13:07Z</time>
      </trkpt>
      <trkpt lat="45.26517" lon="5.609">
        <ele>633.5</ele>
        <time>2011-05-17T11:13:08Z</time>
      </trkpt>
      <trkpt lat="45.26524" lon="5.60903">
        <ele>631.9</ele>
        <time>2011-05-17T11:13:09Z</time>
      </trkpt>
      <trkpt lat="45.2653" lon="5.60906">
        <ele>630.7</ele>
        <time>2011-05-17T11:13:10Z</time>
      </trkpt>
      <trkpt lat="45.26535" lon="5.6091">
        <ele>629.8</ele>
        <time>2011-05-17T11:13:11Z</time>
      </trkpt>
      <trkpt lat="45.26539" lon="5.60914">
        <ele>628.1</ele>
        <time>2011-05-17T11:13:12Z</time>
      </trkpt>
      <trkpt lat="45.26544" lon="5.60917">
        <ele>626.9</ele>
        <time>2011-05-17T11:13:13Z</time>
      </trkpt>
      <trkpt lat="45.26549" lon="5.60922">
        <ele>625.9</ele>
        <time>2011-05-17T11:13:14Z</time>
      </trkpt>
      <trkpt lat="45.26556" lon="5.60927">
        <ele>624</ele>
        <time>2011-05-17T11:13:15Z</time>
      </trkpt>
      <trkpt lat="45.26562" lon="5.60933">
        <ele>622.6</ele>
        <time>2011-05-17T11:13:16Z</time>
      </trkpt>
      <trkpt lat="45.26566" lon="5.60937">
        <ele>621.5</ele>
        <time>2011-05-17T11:13:17Z</time>
      </trkpt>
      <trkpt lat="45.26571" lon="5.60942">
        <ele>620.7</ele>
        <time>2011-05-17T11:13:18Z</time>
      </trkpt>
      <trkpt lat="45.26575" lon="5.60948">
        <ele>618.7</ele>
        <time>2011-05-17T11:13:19Z</time>
      </trkpt>
      <trkpt lat="45.26579" lon="5.60953">
        <ele>617.2</ele>
        <time>2011-05-17T11:13:20Z</time>
      </trkpt>
      <trkpt lat="45.26584" lon="5.60956">
        <ele>616.1</ele>
        <time>2011-05-17T11:13:21Z</time>
      </trkpt>
      <trkpt lat="45.26591" lon="5.60957">
        <ele>612.8</ele>
        <time>2011-05-17T11:13:23Z</time>
      </trkpt>
      <trkpt lat="45.266" lon="5.60955">
        <ele>609.7</ele>
        <time>2011-05-17T11:13:25Z</time>
      </trkpt>
      <trkpt lat="45.26608" lon="5.60955">
        <ele>607</ele>
        <time>2011-05-17T11:13:27Z</time>
      </trkpt>
      <trkpt lat="45.26615" lon="5.60958">
        <ele>604.6</ele>
        <time>2011-05-17T11:13:29Z</time>
      </trkpt>
      <trkpt lat="45.2662" lon="5.60961">
        <ele>603.8</ele>
        <time>2011-05-17T11:13:30Z</time>
      </trkpt>
      <trkpt lat="45.26628" lon="5.60965">
        <ele>601.3</ele>
        <time>2011-05-17T11:13:32Z</time>
      </trkpt>
      <trkpt lat="45.26635" lon="5.60969">
        <ele>599.8</ele>
        <time>2011-05-17T11:13:34Z</time>
      </trkpt>
      <trkpt lat="45.26632" lon="5.60976">
        <ele>596.2</ele>
        <time>2011-05-17T11:13:41Z</time>
      </trkpt>
      <trkpt lat="45.26627" lon="5.60977">
        <ele>595.6</ele>
        <time>2011-05-17T11:13:42Z</time>
      </trkpt>
      <trkpt lat="45.26622" lon="5.60979">
        <ele>595.2</ele>
        <time>2011-05-17T11:13:43Z</time>
      </trkpt>
      <trkpt lat="45.26614" lon="5.60983">
        <ele>594.1</ele>
        <time>2011-05-17T11:13:45Z</time>
      </trkpt>
      <trkpt lat="45.26619" lon="5.60989">
        <ele>590.7</ele>
        <time>2011-05-17T11:13:52Z</time>
      </trkpt>
      <trkpt lat="45.26626" lon="5.60996">
        <ele>590.1</ele>
        <time>2011-05-17T11:13:54Z</time>
      </trkpt>
      <trkpt lat="45.26633" lon="5.61002">
        <ele>589.8</ele>
        <time>2011-05-17T11:13:56Z</time>
      </trkpt>
      <trkpt lat="45.26637" lon="5.61005">
        <ele>589.4</ele>
        <time>2011-05-17T11:13:57Z</time>
      </trkpt>
      <trkpt lat="45.26641" lon="5.61008">
        <ele>589.1</ele>
        <time>2011-05-17T11:13:58Z</time>
      </trkpt>
      <trkpt lat="45.26646" lon="5.61011">
        <ele>588.9</ele>
        <time>2011-05-17T11:13:59Z</time>
      </trkpt>
      <trkpt lat="45.26651" lon="5.61013">
        <ele>587.8</ele>
        <time>2011-05-17T11:14:00Z</time>
      </trkpt>
      <trkpt lat="45.26655" lon="5.61015">
        <ele>587</ele>
        <time>2011-05-17T11:14:01Z</time>
      </trkpt>
      <trkpt lat="45.26661" lon="5.61016">
        <ele>586.4</ele>
        <time>2011-05-17T11:14:02Z</time>
      </trkpt>
      <trkpt lat="45.26666" lon="5.61017">
        <ele>585.1</ele>
        <time>2011-05-17T11:14:03Z</time>
      </trkpt>
      <trkpt lat="45.26671" lon="5.61018">
        <ele>584.1</ele>
        <time>2011-05-17T11:14:04Z</time>
      </trkpt>
      <trkpt lat="45.2668" lon="5.61017">
        <ele>582.1</ele>
        <time>2011-05-17T11:14:06Z</time>
      </trkpt>
      <trkpt lat="45.26684" lon="5.61027">
        <ele>576.6</ele>
        <time>2011-05-17T11:14:15Z</time>
      </trkpt>
      <trkpt lat="45.26681" lon="5.61036">
        <ele>576.4</ele>
        <time>2011-05-17T11:14:17Z</time>
      </trkpt>
      <trkpt lat="45.26673" lon="5.61041">
        <ele>575.3</ele>
        <time>2011-05-17T11:14:19Z</time>
      </trkpt>
      <trkpt lat="45.26669" lon="5.61041">
        <ele>574.5</ele>
        <time>2011-05-17T11:14:20Z</time>
      </trkpt>
      <trkpt lat="45.26664" lon="5.61041">
        <ele>573.8</ele>
        <time>2011-05-17T11:14:21Z</time>
      </trkpt>
      <trkpt lat="45.26658" lon="5.61043">
        <ele>573</ele>
        <time>2011-05-17T11:14:22Z</time>
      </trkpt>
      <trkpt lat="45.26652" lon="5.61045">
        <ele>572.4</ele>
        <time>2011-05-17T11:14:23Z</time>
      </trkpt>
      <trkpt lat="45.26646" lon="5.61047">
        <ele>571.9</ele>
        <time>2011-05-17T11:14:24Z</time>
      </trkpt>
      <trkpt lat="45.26647" lon="5.6106">
        <ele>566</ele>
        <time>2011-05-17T11:14:30Z</time>
      </trkpt>
      <trkpt lat="45.26651" lon="5.61071">
        <ele>562.1</ele>
        <time>2011-05-17T11:14:42Z</time>
      </trkpt>
      <trkpt lat="45.26651" lon="5.61083">
        <ele>561.8</ele>
        <time>2011-05-17T11:14:59Z</time>
      </trkpt>
      <trkpt lat="45.26657" lon="5.61089">
        <ele>561.8</ele>
        <time>2011-05-17T11:15:42Z</time>
      </trkpt>
      <trkpt lat="45.26659" lon="5.6109">
        <ele>561.9</ele>
        <time>2011-05-17T11:15:43Z</time>
      </trkpt>
      <trkpt lat="45.26657" lon="5.61103">
        <ele>558.9</ele>
        <time>2011-05-17T11:15:52Z</time>
      </trkpt>
      <trkpt lat="45.26651" lon="5.61104">
        <ele>558.4</ele>
        <time>2011-05-17T11:15:53Z</time>
      </trkpt>
      <trkpt lat="45.26646" lon="5.61104">
        <ele>557.3</ele>
        <time>2011-05-17T11:15:54Z</time>
      </trkpt>
      <trkpt lat="45.26639" lon="5.61103">
        <ele>556.5</ele>
        <time>2011-05-17T11:15:55Z</time>
      </trkpt>
      <trkpt lat="45.26633" lon="5.61101">
        <ele>555.9</ele>
        <time>2011-05-17T11:15:56Z</time>
      </trkpt>
      <trkpt lat="45.26626" lon="5.611">
        <ele>554.7</ele>
        <time>2011-05-17T11:15:57Z</time>
      </trkpt>
      <trkpt lat="45.2662" lon="5.61099">
        <ele>553.7</ele>
        <time>2011-05-17T11:15:58Z</time>
      </trkpt>
      <trkpt lat="45.26613" lon="5.611">
        <ele>553</ele>
        <time>2011-05-17T11:15:59Z</time>
      </trkpt>
      <trkpt lat="45.26608" lon="5.611">
        <ele>551.7</ele>
        <time>2011-05-17T11:16:00Z</time>
      </trkpt>
      <trkpt lat="45.26603" lon="5.61101">
        <ele>550.7</ele>
        <time>2011-05-17T11:16:01Z</time>
      </trkpt>
      <trkpt lat="45.26598" lon="5.611">
        <ele>550</ele>
        <time>2011-05-17T11:16:02Z</time>
      </trkpt>
      <trkpt lat="45.26593" lon="5.611">
        <ele>549.5</ele>
        <time>2011-05-17T11:16:03Z</time>
      </trkpt>
      <trkpt lat="45.26587" lon="5.61101">
        <ele>548.4</ele>
        <time>2011-05-17T11:16:04Z</time>
      </trkpt>
      <trkpt lat="45.26582" lon="5.61101">
        <ele>547.6</ele>
        <time>2011-05-17T11:16:05Z</time>
      </trkpt>
      <trkpt lat="45.26576" lon="5.61101">
        <ele>547</ele>
        <time>2011-05-17T11:16:06Z</time>
      </trkpt>
      <trkpt lat="45.26571" lon="5.61101">
        <ele>545.6</ele>
        <time>2011-05-17T11:16:07Z</time>
      </trkpt>
      <trkpt lat="45.26565" lon="5.61102">
        <ele>544.6</ele>
        <time>2011-05-17T11:16:08Z</time>
      </trkpt>
      <trkpt lat="45.2656" lon="5.61102">
        <ele>543.9</ele>
        <time>2011-05-17T11:16:09Z</time>
      </trkpt>
      <trkpt lat="45.26554" lon="5.61102">
        <ele>542.6</ele>
        <time>2011-05-17T11:16:10Z</time>
      </trkpt>
      <trkpt lat="45.26549" lon="5.61102">
        <ele>541.6</ele>
        <time>2011-05-17T11:16:11Z</time>
      </trkpt>
      <trkpt lat="45.26544" lon="5.61102">
        <ele>540.8</ele>
        <time>2011-05-17T11:16:12Z</time>
      </trkpt>
      <trkpt lat="45.26538" lon="5.61101">
        <ele>539.5</ele>
        <time>2011-05-17T11:16:13Z</time>
      </trkpt>
      <trkpt lat="45.26532" lon="5.61101">
        <ele>538.5</ele>
        <time>2011-05-17T11:16:14Z</time>
      </trkpt>
      <trkpt lat="45.26527" lon="5.611">
        <ele>537.8</ele>
        <time>2011-05-17T11:16:15Z</time>
      </trkpt>
      <trkpt lat="45.26518" lon="5.611">
        <ele>534.9</ele>
        <time>2011-05-17T11:16:17Z</time>
      </trkpt>
      <trkpt lat="45.2651" lon="5.61101">
        <ele>531.8</ele>
        <time>2011-05-17T11:16:20Z</time>
      </trkpt>
      <trkpt lat="45.26513" lon="5.61112">
        <ele>527.3</ele>
        <time>2011-05-17T11:16:28Z</time>
      </trkpt>
      <trkpt lat="45.26519" lon="5.61119">
        <ele>525.3</ele>
        <time>2011-05-17T11:16:30Z</time>
      </trkpt>
      <trkpt lat="45.26523" lon="5.61125">
        <ele>523.6</ele>
        <time>2011-05-17T11:16:32Z</time>
      </trkpt>
      <trkpt lat="45.26528" lon="5.61131">
        <ele>522.2</ele>
        <time>2011-05-17T11:16:34Z</time>
      </trkpt>
      <trkpt lat="45.26535" lon="5.61137">
        <ele>520.7</ele>
        <time>2011-05-17T11:16:36Z</time>
      </trkpt>
      <trkpt lat="45.26539" lon="5.61141">
        <ele>520.2</ele>
        <time>2011-05-17T11:16:37Z</time>
      </trkpt>
      <trkpt lat="45.26543" lon="5.61146">
        <ele>518.8</ele>
        <time>2011-05-17T11:16:38Z</time>
      </trkpt>
      <trkpt lat="45.26547" lon="5.61151">
        <ele>517.8</ele>
        <time>2011-05-17T11:16:39Z</time>
      </trkpt>
      <trkpt lat="45.2655" lon="5.61155">
        <ele>517</ele>
        <time>2011-05-17T11:16:40Z</time>
      </trkpt>
      <trkpt lat="45.26553" lon="5.6116">
        <ele>516.4</ele>
        <time>2011-05-17T11:16:41Z</time>
      </trkpt>
      <trkpt lat="45.26557" lon="5.61166">
        <ele>515.2</ele>
        <time>2011-05-17T11:16:42Z</time>
      </trkpt>
      <trkpt lat="45.2656" lon="5.61172">
        <ele>514.3</ele>
        <time>2011-05-17T11:16:43Z</time>
      </trkpt>
      <trkpt lat="45.26564" lon="5.61178">
        <ele>513.6</ele>
        <time>2011-05-17T11:16:44Z</time>
      </trkpt>
      <trkpt lat="45.26567" lon="5.61183">
        <ele>512.7</ele>
        <time>2011-05-17T11:16:45Z</time>
      </trkpt>
      <trkpt lat="45.2657" lon="5.61188">
        <ele>512</ele>
        <time>2011-05-17T11:16:46Z</time>
      </trkpt>
      <trkpt lat="45.26576" lon="5.61196">
        <ele>510</ele>
        <time>2011-05-17T11:16:48Z</time>
      </trkpt>
      <trkpt lat="45.26568" lon="5.61201">
        <ele>504.9</ele>
        <time>2011-05-17T11:16:54Z</time>
      </trkpt>
      <trkpt lat="45.2656" lon="5.61201">
        <ele>504.3</ele>
        <time>2011-05-17T11:16:56Z</time>
      </trkpt>
      <trkpt lat="45.26554" lon="5.612">
        <ele>504.1</ele>
        <time>2011-05-17T11:16:57Z</time>
      </trkpt>
      <trkpt lat="45.26548" lon="5.61199">
        <ele>503.5</ele>
        <time>2011-05-17T11:16:58Z</time>
      </trkpt>
      <trkpt lat="45.26543" lon="5.61198">
        <ele>503</ele>
        <time>2011-05-17T11:16:59Z</time>
      </trkpt>
      <trkpt lat="45.26537" lon="5.61196">
        <ele>502.7</ele>
        <time>2011-05-17T11:17:00Z</time>
      </trkpt>
      <trkpt lat="45.26532" lon="5.61195">
        <ele>501.3</ele>
        <time>2011-05-17T11:17:01Z</time>
      </trkpt>
      <trkpt lat="45.26526" lon="5.61193">
        <ele>500.3</ele>
        <time>2011-05-17T11:17:02Z</time>
      </trkpt>
      <trkpt lat="45.2652" lon="5.61193">
        <ele>499.6</ele>
        <time>2011-05-17T11:17:03Z</time>
      </trkpt>
      <trkpt lat="45.26514" lon="5.61193">
        <ele>498.1</ele>
        <time>2011-05-17T11:17:04Z</time>
      </trkpt>
      <trkpt lat="45.26507" lon="5.61195">
        <ele>497</ele>
        <time>2011-05-17T11:17:05Z</time>
      </trkpt>
      <trkpt lat="45.265" lon="5.61197">
        <ele>496.1</ele>
        <time>2011-05-17T11:17:06Z</time>
      </trkpt>
      <trkpt lat="45.26493" lon="5.612">
        <ele>494.4</ele>
        <time>2011-05-17T11:17:07Z</time>
      </trkpt>
      <trkpt lat="45.26487" lon="5.61203">
        <ele>493.2</ele>
        <time>2011-05-17T11:17:08Z</time>
      </trkpt>
      <trkpt lat="45.2648" lon="5.61205">
        <ele>490.8</ele>
        <time>2011-05-17T11:17:10Z</time>
      </trkpt>
      <trkpt lat="45.26482" lon="5.61217">
        <ele>483.9</ele>
        <time>2011-05-17T11:17:19Z</time>
      </trkpt>
      <trkpt lat="45.26485" lon="5.61221">
        <ele>483.1</ele>
        <time>2011-05-17T11:17:20Z</time>
      </trkpt>
      <trkpt lat="45.26489" lon="5.61225">
        <ele>482.5</ele>
        <time>2011-05-17T11:17:21Z</time>
      </trkpt>
      <trkpt lat="45.26493" lon="5.61228">
        <ele>482</ele>
        <time>2011-05-17T11:17:22Z</time>
      </trkpt>
      <trkpt lat="45.26498" lon="5.61232">
        <ele>481.7</ele>
        <time>2011-05-17T11:17:23Z</time>
      </trkpt>
      <trkpt lat="45.26504" lon="5.61237">
        <ele>481.5</ele>
        <time>2011-05-17T11:17:24Z</time>
      </trkpt>
      <trkpt lat="45.26509" lon="5.61242">
        <ele>481.4</ele>
        <time>2011-05-17T11:17:25Z</time>
      </trkpt>
      <trkpt lat="45.26513" lon="5.61247">
        <ele>479.4</ele>
        <time>2011-05-17T11:17:26Z</time>
      </trkpt>
      <trkpt lat="45.26517" lon="5.61252">
        <ele>477.9</ele>
        <time>2011-05-17T11:17:27Z</time>
      </trkpt>
      <trkpt lat="45.26524" lon="5.61258">
        <ele>475.6</ele>
        <time>2011-05-17T11:17:29Z</time>
      </trkpt>
      <trkpt lat="45.26528" lon="5.61262">
        <ele>474.7</ele>
        <time>2011-05-17T11:17:30Z</time>
      </trkpt>
      <trkpt lat="45.26532" lon="5.61266">
        <ele>474.1</ele>
        <time>2011-05-17T11:17:31Z</time>
      </trkpt>
      <trkpt lat="45.26537" lon="5.61271">
        <ele>472.7</ele>
        <time>2011-05-17T11:17:32Z</time>
      </trkpt>
      <trkpt lat="45.26541" lon="5.61277">
        <ele>471.7</ele>
        <time>2011-05-17T11:17:33Z</time>
      </trkpt>
      <trkpt lat="45.26546" lon="5.61284">
        <ele>470.4</ele>
        <time>2011-05-17T11:17:35Z</time>
      </trkpt>
      <trkpt lat="45.26553" lon="5.6129">
        <ele>467.5</ele>
        <time>2011-05-17T11:17:38Z</time>
      </trkpt>
      <trkpt lat="45.26558" lon="5.61296">
        <ele>466.5</ele>
        <time>2011-05-17T11:17:40Z</time>
      </trkpt>
      <trkpt lat="45.26564" lon="5.613">
        <ele>466.1</ele>
        <time>2011-05-17T11:17:42Z</time>
      </trkpt>
      <trkpt lat="45.26565" lon="5.61312">
        <ele>461.4</ele>
        <time>2011-05-17T11:17:57Z</time>
      </trkpt>
      <trkpt lat="45.26565" lon="5.61313">
        <ele>461.1</ele>
        <time>2011-05-17T11:17:58Z</time>
      </trkpt>
      <trkpt lat="45.26558" lon="5.61326">
        <ele>461.5</ele>
        <time>2011-05-17T11:18:42Z</time>
      </trkpt>
      <trkpt lat="45.26551" lon="5.61324">
        <ele>461.4</ele>
        <time>2011-05-17T11:18:44Z</time>
      </trkpt>
      <trkpt lat="45.26546" lon="5.61324">
        <ele>460.7</ele>
        <time>2011-05-17T11:18:45Z</time>
      </trkpt>
      <trkpt lat="45.26541" lon="5.61322">
        <ele>460.3</ele>
        <time>2011-05-17T11:18:46Z</time>
      </trkpt>
      <trkpt lat="45.26535" lon="5.61323">
        <ele>459.9</ele>
        <time>2011-05-17T11:18:47Z</time>
      </trkpt>
      <trkpt lat="45.2653" lon="5.61325">
        <ele>459.7</ele>
        <time>2011-05-17T11:18:48Z</time>
      </trkpt>
      <trkpt lat="45.26525" lon="5.61325">
        <ele>458.2</ele>
        <time>2011-05-17T11:18:49Z</time>
      </trkpt>
      <trkpt lat="45.2652" lon="5.61325">
        <ele>457.1</ele>
        <time>2011-05-17T11:18:50Z</time>
      </trkpt>
      <trkpt lat="45.26514" lon="5.61323">
        <ele>456.3</ele>
        <time>2011-05-17T11:18:51Z</time>
      </trkpt>
      <trkpt lat="45.26509" lon="5.61322">
        <ele>454.6</ele>
        <time>2011-05-17T11:18:52Z</time>
      </trkpt>
      <trkpt lat="45.26504" lon="5.61321">
        <ele>453.3</ele>
        <time>2011-05-17T11:18:53Z</time>
      </trkpt>
      <trkpt lat="45.26498" lon="5.61319">
        <ele>452.4</ele>
        <time>2011-05-17T11:18:54Z</time>
      </trkpt>
      <trkpt lat="45.26492" lon="5.61317">
        <ele>450.8</ele>
        <time>2011-05-17T11:18:55Z</time>
      </trkpt>
      <trkpt lat="45.26485" lon="5.61314">
        <ele>449.6</ele>
        <time>2011-05-17T11:18:56Z</time>
      </trkpt>
      <trkpt lat="45.2648" lon="5.61313">
        <ele>448.7</ele>
        <time>2011-05-17T11:18:57Z</time>
      </trkpt>
      <trkpt lat="45.26481" lon="5.61325">
        <ele>438.6</ele>
        <time>2011-05-17T11:19:08Z</time>
      </trkpt>
      <trkpt lat="45.26481" lon="5.61327">
        <ele>438.1</ele>
        <time>2011-05-17T11:19:09Z</time>
      </trkpt>
      <trkpt lat="45.26468" lon="5.61326">
        <ele>434.4</ele>
        <time>2011-05-17T11:19:14Z</time>
      </trkpt>
      <trkpt lat="45.26463" lon="5.61325">
        <ele>433.4</ele>
        <time>2011-05-17T11:19:15Z</time>
      </trkpt>
      <trkpt lat="45.26457" lon="5.61324">
        <ele>432.6</ele>
        <time>2011-05-17T11:19:16Z</time>
      </trkpt>
      <trkpt lat="45.26451" lon="5.61323">
        <ele>431.9</ele>
        <time>2011-05-17T11:19:17Z</time>
      </trkpt>
      <trkpt lat="45.26443" lon="5.61323">
        <ele>431.4</ele>
        <time>2011-05-17T11:19:18Z</time>
      </trkpt>
      <trkpt lat="45.26437" lon="5.61322">
        <ele>431</ele>
        <time>2011-05-17T11:19:19Z</time>
      </trkpt>
      <trkpt lat="45.26432" lon="5.6132">
        <ele>429.9</ele>
        <time>2011-05-17T11:19:20Z</time>
      </trkpt>
      <trkpt lat="45.26426" lon="5.6132">
        <ele>429.1</ele>
        <time>2011-05-17T11:19:21Z</time>
      </trkpt>
      <trkpt lat="45.26419" lon="5.6132">
        <ele>428.4</ele>
        <time>2011-05-17T11:19:22Z</time>
      </trkpt>
      <trkpt lat="45.26414" lon="5.61318">
        <ele>427.9</ele>
        <time>2011-05-17T11:19:23Z</time>
      </trkpt>
      <trkpt lat="45.26406" lon="5.61318">
        <ele>426.9</ele>
        <time>2011-05-17T11:19:25Z</time>
      </trkpt>
      <trkpt lat="45.26397" lon="5.61323">
        <ele>426.3</ele>
        <time>2011-05-17T11:19:27Z</time>
      </trkpt>
      <trkpt lat="45.2639" lon="5.61327">
        <ele>426</ele>
        <time>2011-05-17T11:19:29Z</time>
      </trkpt>
      <trkpt lat="45.26391" lon="5.61335">
        <ele>423.1</ele>
        <time>2011-05-17T11:19:37Z</time>
      </trkpt>
      <trkpt lat="45.26395" lon="5.61337">
        <ele>422.9</ele>
        <time>2011-05-17T11:19:38Z</time>
      </trkpt>
      <trkpt lat="45.264" lon="5.61339">
        <ele>422.2</ele>
        <time>2011-05-17T11:19:39Z</time>
      </trkpt>
      <trkpt lat="45.26407" lon="5.61344">
        <ele>421.2</ele>
        <time>2011-05-17T11:19:41Z</time>
      </trkpt>
      <trkpt lat="45.26415" lon="5.61349">
        <ele>420.3</ele>
        <time>2011-05-17T11:19:43Z</time>
      </trkpt>
      <trkpt lat="45.26422" lon="5.61352">
        <ele>419.6</ele>
        <time>2011-05-17T11:19:45Z</time>
      </trkpt>
      <trkpt lat="45.2642" lon="5.61362">
        <ele>413.5</ele>
        <time>2011-05-17T11:19:52Z</time>
      </trkpt>
      <trkpt lat="45.26412" lon="5.61369">
        <ele>407.6</ele>
        <time>2011-05-17T11:19:58Z</time>
      </trkpt>
      <trkpt lat="45.26411" lon="5.61381">
        <ele>406.6</ele>
        <time>2011-05-17T11:20:17Z</time>
      </trkpt>
      <trkpt lat="45.26411" lon="5.61382">
        <ele>406.2</ele>
        <time>2011-05-17T11:20:18Z</time>
      </trkpt>
      <trkpt lat="45.26403" lon="5.61375">
        <ele>406</ele>
        <time>2011-05-17T11:24:25Z</time>
      </trkpt>
      <trkpt lat="45.2641" lon="5.61385">
        <ele>406.2</ele>
        <time>2011-05-17T11:26:37Z</time>
      </trkpt>
      <trkpt lat="45.264" lon="5.61388">
        <ele>406.2</ele>
        <time>2011-05-17T11:30:37Z</time>
      </trkpt>
      <trkpt lat="45.26389" lon="5.61387">
        <ele>405.3</ele>
        <time>2011-05-17T11:30:40Z</time>
      </trkpt>
      <trkpt lat="45.26382" lon="5.61388">
        <ele>404.6</ele>
        <time>2011-05-17T11:30:42Z</time>
      </trkpt>
      <trkpt lat="45.26375" lon="5.61389">
        <ele>403.4</ele>
        <time>2011-05-17T11:30:44Z</time>
      </trkpt>
      <trkpt lat="45.26366" lon="5.61389">
        <ele>402.4</ele>
        <time>2011-05-17T11:30:46Z</time>
      </trkpt>
      <trkpt lat="45.26359" lon="5.61392">
        <ele>401.6</ele>
        <time>2011-05-17T11:30:48Z</time>
      </trkpt>
      <trkpt lat="45.26351" lon="5.61395">
        <ele>399.5</ele>
        <time>2011-05-17T11:30:50Z</time>
      </trkpt>
      <trkpt lat="45.26347" lon="5.61397">
        <ele>398.9</ele>
        <time>2011-05-17T11:30:51Z</time>
      </trkpt>
      <trkpt lat="45.26343" lon="5.614">
        <ele>397.8</ele>
        <time>2011-05-17T11:30:52Z</time>
      </trkpt>
      <trkpt lat="45.26339" lon="5.61404">
        <ele>397</ele>
        <time>2011-05-17T11:30:53Z</time>
      </trkpt>
      <trkpt lat="45.26335" lon="5.61406">
        <ele>396.4</ele>
        <time>2011-05-17T11:30:54Z</time>
      </trkpt>
      <trkpt lat="45.26326" lon="5.6141">
        <ele>395.2</ele>
        <time>2011-05-17T11:30:56Z</time>
      </trkpt>
      <trkpt lat="45.2632" lon="5.61415">
        <ele>394.5</ele>
        <time>2011-05-17T11:30:58Z</time>
      </trkpt>
      <trkpt lat="45.26312" lon="5.61418">
        <ele>392</ele>
        <time>2011-05-17T11:31:01Z</time>
      </trkpt>
      <trkpt lat="45.26316" lon="5.61427">
        <ele>388.1</ele>
        <time>2011-05-17T11:31:09Z</time>
      </trkpt>
      <trkpt lat="45.26322" lon="5.61429">
        <ele>387</ele>
        <time>2011-05-17T11:31:11Z</time>
      </trkpt>
      <trkpt lat="45.2633" lon="5.61432">
        <ele>385.8</ele>
        <time>2011-05-17T11:31:13Z</time>
      </trkpt>
      <trkpt lat="45.26337" lon="5.61434">
        <ele>384.8</ele>
        <time>2011-05-17T11:31:15Z</time>
      </trkpt>
      <trkpt lat="45.26333" lon="5.61444">
        <ele>378.9</ele>
        <time>2011-05-17T11:31:25Z</time>
      </trkpt>
      <trkpt lat="45.26328" lon="5.61448">
        <ele>378.7</ele>
        <time>2011-05-17T11:31:26Z</time>
      </trkpt>
      <trkpt lat="45.26323" lon="5.61452">
        <ele>377.3</ele>
        <time>2011-05-17T11:31:27Z</time>
      </trkpt>
      <trkpt lat="45.26318" lon="5.61457">
        <ele>376.3</ele>
        <time>2011-05-17T11:31:28Z</time>
      </trkpt>
      <trkpt lat="45.26312" lon="5.61461">
        <ele>375.6</ele>
        <time>2011-05-17T11:31:29Z</time>
      </trkpt>
      <trkpt lat="45.26307" lon="5.61465">
        <ele>374</ele>
        <time>2011-05-17T11:31:30Z</time>
      </trkpt>
      <trkpt lat="45.26302" lon="5.61469">
        <ele>372.7</ele>
        <time>2011-05-17T11:31:31Z</time>
      </trkpt>
      <trkpt lat="45.26297" lon="5.61472">
        <ele>371.8</ele>
        <time>2011-05-17T11:31:32Z</time>
      </trkpt>
      <trkpt lat="45.26292" lon="5.61472">
        <ele>369.6</ele>
        <time>2011-05-17T11:31:33Z</time>
      </trkpt>
      <trkpt lat="45.26287" lon="5.61474">
        <ele>368</ele>
        <time>2011-05-17T11:31:34Z</time>
      </trkpt>
      <trkpt lat="45.26281" lon="5.61474">
        <ele>366.8</ele>
        <time>2011-05-17T11:31:35Z</time>
      </trkpt>
      <trkpt lat="45.26274" lon="5.61476">
        <ele>365.8</ele>
        <time>2011-05-17T11:31:36Z</time>
      </trkpt>
      <trkpt lat="45.26268" lon="5.61477">
        <ele>364.1</ele>
        <time>2011-05-17T11:31:37Z</time>
      </trkpt>
      <trkpt lat="45.26261" lon="5.61479">
        <ele>362.7</ele>
        <time>2011-05-17T11:31:38Z</time>
      </trkpt>
      <trkpt lat="45.26255" lon="5.61481">
        <ele>361.7</ele>
        <time>2011-05-17T11:31:39Z</time>
      </trkpt>
      <trkpt lat="45.26248" lon="5.61487">
        <ele>359.6</ele>
        <time>2011-05-17T11:31:41Z</time>
      </trkpt>
      <trkpt lat="45.2624" lon="5.6149">
        <ele>357.7</ele>
        <time>2011-05-17T11:31:43Z</time>
      </trkpt>
      <trkpt lat="45.26232" lon="5.61489">
        <ele>356.2</ele>
        <time>2011-05-17T11:31:45Z</time>
      </trkpt>
      <trkpt lat="45.26228" lon="5.61489">
        <ele>355.1</ele>
        <time>2011-05-17T11:31:46Z</time>
      </trkpt>
      <trkpt lat="45.26223" lon="5.61489">
        <ele>354.2</ele>
        <time>2011-05-17T11:31:47Z</time>
      </trkpt>
      <trkpt lat="45.26219" lon="5.61491">
        <ele>353.5</ele>
        <time>2011-05-17T11:31:48Z</time>
      </trkpt>
      <trkpt lat="45.26214" lon="5.61493">
        <ele>352.2</ele>
        <time>2011-05-17T11:31:49Z</time>
      </trkpt>
      <trkpt lat="45.26209" lon="5.61496">
        <ele>351.1</ele>
        <time>2011-05-17T11:31:50Z</time>
      </trkpt>
      <trkpt lat="45.26204" lon="5.61499">
        <ele>350.4</ele>
        <time>2011-05-17T11:31:51Z</time>
      </trkpt>
      <trkpt lat="45.26199" lon="5.61504">
        <ele>349.8</ele>
        <time>2011-05-17T11:31:52Z</time>
      </trkpt>
      <trkpt lat="45.26194" lon="5.61509">
        <ele>349.4</ele>
        <time>2011-05-17T11:31:53Z</time>
      </trkpt>
      <trkpt lat="45.26188" lon="5.61513">
        <ele>349.1</ele>
        <time>2011-05-17T11:31:54Z</time>
      </trkpt>
      <trkpt lat="45.26183" lon="5.61516">
        <ele>348.9</ele>
        <time>2011-05-17T11:31:55Z</time>
      </trkpt>
      <trkpt lat="45.26177" lon="5.61519">
        <ele>347.9</ele>
        <time>2011-05-17T11:31:56Z</time>
      </trkpt>
      <trkpt lat="45.26171" lon="5.61521">
        <ele>347.2</ele>
        <time>2011-05-17T11:31:57Z</time>
      </trkpt>
      <trkpt lat="45.26165" lon="5.61524">
        <ele>346.7</ele>
        <time>2011-05-17T11:31:58Z</time>
      </trkpt>
      <trkpt lat="45.26159" lon="5.61527">
        <ele>345.6</ele>
        <time>2011-05-17T11:31:59Z</time>
      </trkpt>
      <trkpt lat="45.26153" lon="5.61531">
        <ele>344.8</ele>
        <time>2011-05-17T11:32:00Z</time>
      </trkpt>
      <trkpt lat="45.26146" lon="5.61535">
        <ele>342.8</ele>
        <time>2011-05-17T11:32:02Z</time>
      </trkpt>
      <trkpt lat="45.2614" lon="5.61543">
        <ele>338.2</ele>
        <time>2011-05-17T11:32:08Z</time>
      </trkpt>
      <trkpt lat="45.26146" lon="5.61551">
        <ele>337.2</ele>
        <time>2011-05-17T11:32:17Z</time>
      </trkpt>
      <trkpt lat="45.26152" lon="5.61552">
        <ele>336</ele>
        <time>2011-05-17T11:32:19Z</time>
      </trkpt>
      <trkpt lat="45.26156" lon="5.61553">
        <ele>335.6</ele>
        <time>2011-05-17T11:32:20Z</time>
      </trkpt>
      <trkpt lat="45.26162" lon="5.61554">
        <ele>334.4</ele>
        <time>2011-05-17T11:32:21Z</time>
      </trkpt>
      <trkpt lat="45.26167" lon="5.61555">
        <ele>333.4</ele>
        <time>2011-05-17T11:32:22Z</time>
      </trkpt>
      <trkpt lat="45.26173" lon="5.61556">
        <ele>332.7</ele>
        <time>2011-05-17T11:32:23Z</time>
      </trkpt>
      <trkpt lat="45.26179" lon="5.61558">
        <ele>331</ele>
        <time>2011-05-17T11:32:24Z</time>
      </trkpt>
      <trkpt lat="45.26185" lon="5.61558">
        <ele>329.6</ele>
        <time>2011-05-17T11:32:25Z</time>
      </trkpt>
      <trkpt lat="45.2619" lon="5.61557">
        <ele>328.6</ele>
        <time>2011-05-17T11:32:26Z</time>
      </trkpt>
      <trkpt lat="45.26198" lon="5.61555">
        <ele>325.1</ele>
        <time>2011-05-17T11:32:28Z</time>
      </trkpt>
      <trkpt lat="45.26195" lon="5.61565">
        <ele>317.7</ele>
        <time>2011-05-17T11:32:35Z</time>
      </trkpt>
      <trkpt lat="45.26189" lon="5.61569">
        <ele>316</ele>
        <time>2011-05-17T11:32:37Z</time>
      </trkpt>
      <trkpt lat="45.26192" lon="5.61581">
        <ele>308.9</ele>
        <time>2011-05-17T11:32:45Z</time>
      </trkpt>
      <trkpt lat="45.26197" lon="5.61582">
        <ele>307.1</ele>
        <time>2011-05-17T11:32:46Z</time>
      </trkpt>
      <trkpt lat="45.26205" lon="5.61584">
        <ele>304.7</ele>
        <time>2011-05-17T11:32:48Z</time>
      </trkpt>
      <trkpt lat="45.26213" lon="5.61586">
        <ele>301.1</ele>
        <time>2011-05-17T11:32:51Z</time>
      </trkpt>
      <trkpt lat="45.26219" lon="5.61589">
        <ele>298.8</ele>
        <time>2011-05-17T11:32:53Z</time>
      </trkpt>
      <trkpt lat="45.26226" lon="5.61593">
        <ele>297</ele>
        <time>2011-05-17T11:32:55Z</time>
      </trkpt>
      <trkpt lat="45.26234" lon="5.61593">
        <ele>294.3</ele>
        <time>2011-05-17T11:32:57Z</time>
      </trkpt>
      <trkpt lat="45.26229" lon="5.61601">
        <ele>286.6</ele>
        <time>2011-05-17T11:33:05Z</time>
      </trkpt>
      <trkpt lat="45.26224" lon="5.6161">
        <ele>285.4</ele>
        <time>2011-05-17T11:33:07Z</time>
      </trkpt>
      <trkpt lat="45.2622" lon="5.61616">
        <ele>283.6</ele>
        <time>2011-05-17T11:33:09Z</time>
      </trkpt>
      <trkpt lat="45.26215" lon="5.61619">
        <ele>282.5</ele>
        <time>2011-05-17T11:33:10Z</time>
      </trkpt>
      <trkpt lat="45.26211" lon="5.61622">
        <ele>281.8</ele>
        <time>2011-05-17T11:33:11Z</time>
      </trkpt>
      <trkpt lat="45.26206" lon="5.61627">
        <ele>280.7</ele>
        <time>2011-05-17T11:33:12Z</time>
      </trkpt>
      <trkpt lat="45.26201" lon="5.61632">
        <ele>279.8</ele>
        <time>2011-05-17T11:33:13Z</time>
      </trkpt>
      <trkpt lat="45.26197" lon="5.61636">
        <ele>279.2</ele>
        <time>2011-05-17T11:33:14Z</time>
      </trkpt>
      <trkpt lat="45.26191" lon="5.61642">
        <ele>275.8</ele>
        <time>2011-05-17T11:33:16Z</time>
      </trkpt>
      <trkpt lat="45.26198" lon="5.61649">
        <ele>268.8</ele>
        <time>2011-05-17T11:33:23Z</time>
      </trkpt>
      <trkpt lat="45.26203" lon="5.6165">
        <ele>268.3</ele>
        <time>2011-05-17T11:33:24Z</time>
      </trkpt>
      <trkpt lat="45.26208" lon="5.61651">
        <ele>267.5</ele>
        <time>2011-05-17T11:33:25Z</time>
      </trkpt>
      <trkpt lat="45.26213" lon="5.61651">
        <ele>266.8</ele>
        <time>2011-05-17T11:33:26Z</time>
      </trkpt>
      <trkpt lat="45.26221" lon="5.61652">
        <ele>265</ele>
        <time>2011-05-17T11:33:28Z</time>
      </trkpt>
      <trkpt lat="45.26226" lon="5.61653">
        <ele>264</ele>
        <time>2011-05-17T11:33:29Z</time>
      </trkpt>
      <trkpt lat="45.26231" lon="5.61655">
        <ele>263.2</ele>
        <time>2011-05-17T11:33:30Z</time>
      </trkpt>
      <trkpt lat="45.26238" lon="5.61656">
        <ele>260.5</ele>
        <time>2011-05-17T11:33:32Z</time>
      </trkpt>
      <trkpt lat="45.26235" lon="5.61666">
        <ele>251.6</ele>
        <time>2011-05-17T11:33:40Z</time>
      </trkpt>
      <trkpt lat="45.26228" lon="5.61673">
        <ele>249.9</ele>
        <time>2011-05-17T11:33:42Z</time>
      </trkpt>
      <trkpt lat="45.26222" lon="5.61681">
        <ele>248.2</ele>
        <time>2011-05-17T11:33:44Z</time>
      </trkpt>
      <trkpt lat="45.26216" lon="5.61687">
        <ele>246.6</ele>
        <time>2011-05-17T11:33:46Z</time>
      </trkpt>
      <trkpt lat="45.26214" lon="5.61689">
        <ele>245.2</ele>
        <time>2011-05-17T11:33:47Z</time>
      </trkpt>
      <trkpt lat="45.26223" lon="5.61696">
        <ele>240</ele>
        <time>2011-05-17T11:33:53Z</time>
      </trkpt>
      <trkpt lat="45.26228" lon="5.61698">
        <ele>239.4</ele>
        <time>2011-05-17T11:33:54Z</time>
      </trkpt>
      <trkpt lat="45.26234" lon="5.61701">
        <ele>238.9</ele>
        <time>2011-05-17T11:33:55Z</time>
      </trkpt>
      <trkpt lat="45.26239" lon="5.61703">
        <ele>236.8</ele>
        <time>2011-05-17T11:33:56Z</time>
      </trkpt>
      <trkpt lat="45.26245" lon="5.61707">
        <ele>235.2</ele>
        <time>2011-05-17T11:33:57Z</time>
      </trkpt>
      <trkpt lat="45.26249" lon="5.61711">
        <ele>234</ele>
        <time>2011-05-17T11:33:58Z</time>
      </trkpt>
      <trkpt lat="45.26258" lon="5.61714">
        <ele>229.7</ele>
        <time>2011-05-17T11:34:00Z</time>
      </trkpt>
      <trkpt lat="45.26264" lon="5.61715">
        <ele>227.4</ele>
        <time>2011-05-17T11:34:02Z</time>
      </trkpt>
      <trkpt lat="45.26268" lon="5.61726">
        <ele>223.7</ele>
        <time>2011-05-17T11:34:22Z</time>
      </trkpt>
      <trkpt lat="45.26273" lon="5.61736">
        <ele>223.7</ele>
        <time>2011-05-17T11:36:19Z</time>
      </trkpt>
      <trkpt lat="45.26275" lon="5.61742">
        <ele>223.4</ele>
        <time>2011-05-17T11:36:20Z</time>
      </trkpt>
      <trkpt lat="45.26278" lon="5.61754">
        <ele>221.5</ele>
        <time>2011-05-17T11:36:22Z</time>
      </trkpt>
      <trkpt lat="45.26284" lon="5.61759">
        <ele>219.4</ele>
        <time>2011-05-17T11:36:24Z</time>
      </trkpt>
      <trkpt lat="45.26292" lon="5.61759">
        <ele>217</ele>
        <time>2011-05-17T11:36:27Z</time>
      </trkpt>
      <trkpt lat="45.26298" lon="5.61759">
        <ele>216.1</ele>
        <time>2011-05-17T11:36:29Z</time>
      </trkpt>
    </trkseg>
  </trk>
</gpx>